<?xml version="1.0" encoding="UTF-8" standalone="no" ?>
<gpx xmlns="http://www.topografix.com/GPX/1/1" xmlns:xsi="http://www.w3.org/2001/XMLSchema-instance" xsi:schemaLocation="http://www.topografix.com/GPX/1/1 http://www.topografix.com/GPX/1/1/gpx.xsd" version="1.1" creator="VisuGPX - https://www.visugpx.com">
  <metadata>
    <name>Coupe Du Chasseron 2018 16km &amp; 10km</name>
    <desc><![CDATA[Coupe Du Chasseron 2018 
16km & 10km                                                                                                             ]]></desc>
  </metadata>
  <trk>
    <name><![CDATA[Coupe du Chasseron 10 Km+16Km Cadets+Megas]]></name>
    <trkseg>
      <trkpt lat="46.82909" lon="6.53795">
        <ele>1190.4000244141</ele>
        <time>2017-04-30T06:58:42.000Z</time>
      </trkpt>
      <trkpt lat="46.82909" lon="6.53796">
        <ele>1191.5999755859</ele>
        <time>2017-04-30T06:58:45.000Z</time>
      </trkpt>
      <trkpt lat="46.82909" lon="6.53801">
        <ele>1191.4000244141</ele>
        <time>2017-04-30T06:58:47.000Z</time>
      </trkpt>
      <trkpt lat="46.8291" lon="6.53804">
        <ele>1191.5999755859</ele>
        <time>2017-04-30T06:58:48.000Z</time>
      </trkpt>
      <trkpt lat="46.82916" lon="6.53826">
        <ele>1191.5999755859</ele>
        <time>2017-04-30T06:58:53.000Z</time>
      </trkpt>
      <trkpt lat="46.82917" lon="6.53832">
        <ele>1191.8000488281</ele>
        <time>2017-04-30T06:58:54.000Z</time>
      </trkpt>
      <trkpt lat="46.8292" lon="6.53845">
        <ele>1191.4000244141</ele>
        <time>2017-04-30T06:58:56.000Z</time>
      </trkpt>
      <trkpt lat="46.82925" lon="6.53857">
        <ele>1191</ele>
        <time>2017-04-30T06:58:58.000Z</time>
      </trkpt>
      <trkpt lat="46.82933" lon="6.53886">
        <ele>1190.8000488281</ele>
        <time>2017-04-30T06:59:02.000Z</time>
      </trkpt>
      <trkpt lat="46.82937" lon="6.539">
        <ele>1190.8000488281</ele>
        <time>2017-04-30T06:59:04.000Z</time>
      </trkpt>
      <trkpt lat="46.8294" lon="6.53907">
        <ele>1190.5999755859</ele>
        <time>2017-04-30T06:59:05.000Z</time>
      </trkpt>
      <trkpt lat="46.82954" lon="6.53932">
        <ele>1190.5999755859</ele>
        <time>2017-04-30T06:59:09.000Z</time>
      </trkpt>
      <trkpt lat="46.82968" lon="6.53972">
        <ele>1190.5999755859</ele>
        <time>2017-04-30T06:59:15.000Z</time>
      </trkpt>
      <trkpt lat="46.82979" lon="6.54018">
        <ele>1191</ele>
        <time>2017-04-30T06:59:22.000Z</time>
      </trkpt>
      <trkpt lat="46.82989" lon="6.54055">
        <ele>1192</ele>
        <time>2017-04-30T06:59:28.000Z</time>
      </trkpt>
      <trkpt lat="46.82992" lon="6.54067">
        <ele>1192</ele>
        <time>2017-04-30T06:59:30.000Z</time>
      </trkpt>
      <trkpt lat="46.83002" lon="6.54099">
        <ele>1193.4000244141</ele>
        <time>2017-04-30T06:59:36.000Z</time>
      </trkpt>
      <trkpt lat="46.83011" lon="6.54123">
        <ele>1194.5999755859</ele>
        <time>2017-04-30T06:59:41.000Z</time>
      </trkpt>
      <trkpt lat="46.83012" lon="6.54128">
        <ele>1194.8000488281</ele>
        <time>2017-04-30T06:59:42.000Z</time>
      </trkpt>
      <trkpt lat="46.83018" lon="6.5415">
        <ele>1195.4000244141</ele>
        <time>2017-04-30T06:59:46.000Z</time>
      </trkpt>
      <trkpt lat="46.83022" lon="6.54161">
        <ele>1195.4000244141</ele>
        <time>2017-04-30T06:59:48.000Z</time>
      </trkpt>
      <trkpt lat="46.83025" lon="6.54166">
        <ele>1195.5999755859</ele>
        <time>2017-04-30T06:59:49.000Z</time>
      </trkpt>
      <trkpt lat="46.83045" lon="6.54207">
        <ele>1196.5999755859</ele>
        <time>2017-04-30T06:59:56.000Z</time>
      </trkpt>
      <trkpt lat="46.83058" lon="6.54228">
        <ele>1197.8000488281</ele>
        <time>2017-04-30T07:00:00.000Z</time>
      </trkpt>
      <trkpt lat="46.83072" lon="6.54247">
        <ele>1199</ele>
        <time>2017-04-30T07:00:04.000Z</time>
      </trkpt>
      <trkpt lat="46.83076" lon="6.54252">
        <ele>1199.1999511719</ele>
        <time>2017-04-30T07:00:05.000Z</time>
      </trkpt>
      <trkpt lat="46.83091" lon="6.54269">
        <ele>1200.1999511719</ele>
        <time>2017-04-30T07:00:09.000Z</time>
      </trkpt>
      <trkpt lat="46.83098" lon="6.54277">
        <ele>1201.1999511719</ele>
        <time>2017-04-30T07:00:11.000Z</time>
      </trkpt>
      <trkpt lat="46.83109" lon="6.54289">
        <ele>1202.8000488281</ele>
        <time>2017-04-30T07:00:14.000Z</time>
      </trkpt>
      <trkpt lat="46.83116" lon="6.54296">
        <ele>1203.8000488281</ele>
        <time>2017-04-30T07:00:16.000Z</time>
      </trkpt>
      <trkpt lat="46.83128" lon="6.54306">
        <ele>1204.8000488281</ele>
        <time>2017-04-30T07:00:19.000Z</time>
      </trkpt>
      <trkpt lat="46.83131" lon="6.54309">
        <ele>1205.1999511719</ele>
        <time>2017-04-30T07:00:20.000Z</time>
      </trkpt>
      <trkpt lat="46.83138" lon="6.54315">
        <ele>1206</ele>
        <time>2017-04-30T07:00:22.000Z</time>
      </trkpt>
      <trkpt lat="46.83142" lon="6.54318">
        <ele>1206.5999755859</ele>
        <time>2017-04-30T07:00:23.000Z</time>
      </trkpt>
      <trkpt lat="46.83145" lon="6.5432">
        <ele>1207.1999511719</ele>
        <time>2017-04-30T07:00:24.000Z</time>
      </trkpt>
      <trkpt lat="46.83155" lon="6.54327">
        <ele>1208.5999755859</ele>
        <time>2017-04-30T07:00:27.000Z</time>
      </trkpt>
      <trkpt lat="46.83159" lon="6.54329">
        <ele>1209</ele>
        <time>2017-04-30T07:00:28.000Z</time>
      </trkpt>
      <trkpt lat="46.83163" lon="6.54331">
        <ele>1209.5999755859</ele>
        <time>2017-04-30T07:00:29.000Z</time>
      </trkpt>
      <trkpt lat="46.83174" lon="6.54335">
        <ele>1210.8000488281</ele>
        <time>2017-04-30T07:00:32.000Z</time>
      </trkpt>
      <trkpt lat="46.83188" lon="6.54341">
        <ele>1212.1999511719</ele>
        <time>2017-04-30T07:00:36.000Z</time>
      </trkpt>
      <trkpt lat="46.83191" lon="6.54343">
        <ele>1212.8000488281</ele>
        <time>2017-04-30T07:00:37.000Z</time>
      </trkpt>
      <trkpt lat="46.83194" lon="6.54345">
        <ele>1213.4000244141</ele>
        <time>2017-04-30T07:00:38.000Z</time>
      </trkpt>
      <trkpt lat="46.83204" lon="6.54351">
        <ele>1214.4000244141</ele>
        <time>2017-04-30T07:00:41.000Z</time>
      </trkpt>
      <trkpt lat="46.83215" lon="6.54356">
        <ele>1215.8000488281</ele>
        <time>2017-04-30T07:00:44.000Z</time>
      </trkpt>
      <trkpt lat="46.83225" lon="6.5436">
        <ele>1216.8000488281</ele>
        <time>2017-04-30T07:00:47.000Z</time>
      </trkpt>
      <trkpt lat="46.83236" lon="6.54366">
        <ele>1217.8000488281</ele>
        <time>2017-04-30T07:00:50.000Z</time>
      </trkpt>
      <trkpt lat="46.83243" lon="6.5437">
        <ele>1218.5999755859</ele>
        <time>2017-04-30T07:00:52.000Z</time>
      </trkpt>
      <trkpt lat="46.8325" lon="6.54374">
        <ele>1219</ele>
        <time>2017-04-30T07:00:54.000Z</time>
      </trkpt>
      <trkpt lat="46.83266" lon="6.54389">
        <ele>1220</ele>
        <time>2017-04-30T07:00:59.000Z</time>
      </trkpt>
      <trkpt lat="46.83269" lon="6.54392">
        <ele>1220.4000244141</ele>
        <time>2017-04-30T07:01:00.000Z</time>
      </trkpt>
      <trkpt lat="46.83279" lon="6.54401">
        <ele>1221.5999755859</ele>
        <time>2017-04-30T07:01:03.000Z</time>
      </trkpt>
      <trkpt lat="46.83287" lon="6.54411">
        <ele>1222.4000244141</ele>
        <time>2017-04-30T07:01:06.000Z</time>
      </trkpt>
      <trkpt lat="46.8329" lon="6.54413">
        <ele>1223</ele>
        <time>2017-04-30T07:01:07.000Z</time>
      </trkpt>
      <trkpt lat="46.83295" lon="6.54412">
        <ele>1223.8000488281</ele>
        <time>2017-04-30T07:01:09.000Z</time>
      </trkpt>
      <trkpt lat="46.83296" lon="6.5441">
        <ele>1224.4000244141</ele>
        <time>2017-04-30T07:01:10.000Z</time>
      </trkpt>
      <trkpt lat="46.83299" lon="6.54404">
        <ele>1225.8000488281</ele>
        <time>2017-04-30T07:01:12.000Z</time>
      </trkpt>
      <trkpt lat="46.83299" lon="6.54397">
        <ele>1226.5999755859</ele>
        <time>2017-04-30T07:01:14.000Z</time>
      </trkpt>
      <trkpt lat="46.83298" lon="6.54393">
        <ele>1227</ele>
        <time>2017-04-30T07:01:15.000Z</time>
      </trkpt>
      <trkpt lat="46.83297" lon="6.5439">
        <ele>1227.4000244141</ele>
        <time>2017-04-30T07:01:16.000Z</time>
      </trkpt>
      <trkpt lat="46.83294" lon="6.54379">
        <ele>1228.1999511719</ele>
        <time>2017-04-30T07:01:19.000Z</time>
      </trkpt>
      <trkpt lat="46.83293" lon="6.54374">
        <ele>1228.8000488281</ele>
        <time>2017-04-30T07:01:20.000Z</time>
      </trkpt>
      <trkpt lat="46.83293" lon="6.54366">
        <ele>1229.4000244141</ele>
        <time>2017-04-30T07:01:22.000Z</time>
      </trkpt>
      <trkpt lat="46.83291" lon="6.54351">
        <ele>1230</ele>
        <time>2017-04-30T07:01:25.000Z</time>
      </trkpt>
      <trkpt lat="46.83291" lon="6.54337">
        <ele>1230.5999755859</ele>
        <time>2017-04-30T07:01:28.000Z</time>
      </trkpt>
      <trkpt lat="46.83291" lon="6.54322">
        <ele>1232</ele>
        <time>2017-04-30T07:01:31.000Z</time>
      </trkpt>
      <trkpt lat="46.83291" lon="6.54302">
        <ele>1233.4000244141</ele>
        <time>2017-04-30T07:01:36.000Z</time>
      </trkpt>
      <trkpt lat="46.83291" lon="6.54298">
        <ele>1233.5999755859</ele>
        <time>2017-04-30T07:01:37.000Z</time>
      </trkpt>
      <trkpt lat="46.83291" lon="6.54283">
        <ele>1234.5999755859</ele>
        <time>2017-04-30T07:01:41.000Z</time>
      </trkpt>
      <trkpt lat="46.83291" lon="6.54274">
        <ele>1235</ele>
        <time>2017-04-30T07:01:43.000Z</time>
      </trkpt>
      <trkpt lat="46.83292" lon="6.54262">
        <ele>1235.8000488281</ele>
        <time>2017-04-30T07:01:46.000Z</time>
      </trkpt>
      <trkpt lat="46.83293" lon="6.5425">
        <ele>1237</ele>
        <time>2017-04-30T07:01:49.000Z</time>
      </trkpt>
      <trkpt lat="46.83295" lon="6.54245">
        <ele>1238</ele>
        <time>2017-04-30T07:01:51.000Z</time>
      </trkpt>
      <trkpt lat="46.83297" lon="6.54243">
        <ele>1238.4000244141</ele>
        <time>2017-04-30T07:01:52.000Z</time>
      </trkpt>
      <trkpt lat="46.83299" lon="6.54243">
        <ele>1239</ele>
        <time>2017-04-30T07:01:53.000Z</time>
      </trkpt>
      <trkpt lat="46.83301" lon="6.54244">
        <ele>1239.1999511719</ele>
        <time>2017-04-30T07:01:54.000Z</time>
      </trkpt>
      <trkpt lat="46.83303" lon="6.54246">
        <ele>1239.5999755859</ele>
        <time>2017-04-30T07:01:55.000Z</time>
      </trkpt>
      <trkpt lat="46.83309" lon="6.54253">
        <ele>1240.1999511719</ele>
        <time>2017-04-30T07:01:58.000Z</time>
      </trkpt>
      <trkpt lat="46.8331" lon="6.54256">
        <ele>1240.4000244141</ele>
        <time>2017-04-30T07:01:59.000Z</time>
      </trkpt>
      <trkpt lat="46.83312" lon="6.5426">
        <ele>1240.5999755859</ele>
        <time>2017-04-30T07:02:00.000Z</time>
      </trkpt>
      <trkpt lat="46.83322" lon="6.54281">
        <ele>1241.8000488281</ele>
        <time>2017-04-30T07:02:06.000Z</time>
      </trkpt>
      <trkpt lat="46.83331" lon="6.54294">
        <ele>1243</ele>
        <time>2017-04-30T07:02:10.000Z</time>
      </trkpt>
      <trkpt lat="46.83336" lon="6.543">
        <ele>1243.8000488281</ele>
        <time>2017-04-30T07:02:12.000Z</time>
      </trkpt>
      <trkpt lat="46.83341" lon="6.54305">
        <ele>1244.1999511719</ele>
        <time>2017-04-30T07:02:14.000Z</time>
      </trkpt>
      <trkpt lat="46.83352" lon="6.54313">
        <ele>1245</ele>
        <time>2017-04-30T07:02:18.000Z</time>
      </trkpt>
      <trkpt lat="46.83354" lon="6.54315">
        <ele>1245.4000244141</ele>
        <time>2017-04-30T07:02:19.000Z</time>
      </trkpt>
      <trkpt lat="46.83361" lon="6.54323">
        <ele>1246.5999755859</ele>
        <time>2017-04-30T07:02:22.000Z</time>
      </trkpt>
      <trkpt lat="46.83363" lon="6.54326">
        <ele>1247</ele>
        <time>2017-04-30T07:02:23.000Z</time>
      </trkpt>
      <trkpt lat="46.83368" lon="6.54333">
        <ele>1247.5999755859</ele>
        <time>2017-04-30T07:02:25.000Z</time>
      </trkpt>
      <trkpt lat="46.83376" lon="6.54343">
        <ele>1248</ele>
        <time>2017-04-30T07:02:28.000Z</time>
      </trkpt>
      <trkpt lat="46.83387" lon="6.54358">
        <ele>1248.5999755859</ele>
        <time>2017-04-30T07:02:33.000Z</time>
      </trkpt>
      <trkpt lat="46.83392" lon="6.54365">
        <ele>1249.5999755859</ele>
        <time>2017-04-30T07:02:35.000Z</time>
      </trkpt>
      <trkpt lat="46.83395" lon="6.54368">
        <ele>1249.8000488281</ele>
        <time>2017-04-30T07:02:36.000Z</time>
      </trkpt>
      <trkpt lat="46.83406" lon="6.54384">
        <ele>1250.4000244141</ele>
        <time>2017-04-30T07:02:41.000Z</time>
      </trkpt>
      <trkpt lat="46.83414" lon="6.54394">
        <ele>1251</ele>
        <time>2017-04-30T07:02:44.000Z</time>
      </trkpt>
      <trkpt lat="46.83419" lon="6.54401">
        <ele>1251.1999511719</ele>
        <time>2017-04-30T07:02:46.000Z</time>
      </trkpt>
      <trkpt lat="46.83431" lon="6.54416">
        <ele>1251.8000488281</ele>
        <time>2017-04-30T07:02:51.000Z</time>
      </trkpt>
      <trkpt lat="46.83433" lon="6.54419">
        <ele>1252</ele>
        <time>2017-04-30T07:02:52.000Z</time>
      </trkpt>
      <trkpt lat="46.83435" lon="6.54421">
        <ele>1252.4000244141</ele>
        <time>2017-04-30T07:02:53.000Z</time>
      </trkpt>
      <trkpt lat="46.8344" lon="6.54423">
        <ele>1252.8000488281</ele>
        <time>2017-04-30T07:02:55.000Z</time>
      </trkpt>
      <trkpt lat="46.83442" lon="6.54424">
        <ele>1253.1999511719</ele>
        <time>2017-04-30T07:02:56.000Z</time>
      </trkpt>
      <trkpt lat="46.83448" lon="6.54418">
        <ele>1254.4000244141</ele>
        <time>2017-04-30T07:02:59.000Z</time>
      </trkpt>
      <trkpt lat="46.83446" lon="6.54406">
        <ele>1255.4000244141</ele>
        <time>2017-04-30T07:03:02.000Z</time>
      </trkpt>
      <trkpt lat="46.8344" lon="6.54383">
        <ele>1256.8000488281</ele>
        <time>2017-04-30T07:03:07.000Z</time>
      </trkpt>
      <trkpt lat="46.83438" lon="6.54378">
        <ele>1257.4000244141</ele>
        <time>2017-04-30T07:03:08.000Z</time>
      </trkpt>
      <trkpt lat="46.83436" lon="6.54369">
        <ele>1258</ele>
        <time>2017-04-30T07:03:10.000Z</time>
      </trkpt>
      <trkpt lat="46.83433" lon="6.54354">
        <ele>1259.1999511719</ele>
        <time>2017-04-30T07:03:13.000Z</time>
      </trkpt>
      <trkpt lat="46.83429" lon="6.5434">
        <ele>1260.5999755859</ele>
        <time>2017-04-30T07:03:16.000Z</time>
      </trkpt>
      <trkpt lat="46.83427" lon="6.54332">
        <ele>1261.4000244141</ele>
        <time>2017-04-30T07:03:18.000Z</time>
      </trkpt>
      <trkpt lat="46.83426" lon="6.54327">
        <ele>1261.5999755859</ele>
        <time>2017-04-30T07:03:19.000Z</time>
      </trkpt>
      <trkpt lat="46.83422" lon="6.54308">
        <ele>1263</ele>
        <time>2017-04-30T07:03:23.000Z</time>
      </trkpt>
      <trkpt lat="46.83421" lon="6.54303">
        <ele>1263.4000244141</ele>
        <time>2017-04-30T07:03:24.000Z</time>
      </trkpt>
      <trkpt lat="46.83419" lon="6.54293">
        <ele>1264.1999511719</ele>
        <time>2017-04-30T07:03:26.000Z</time>
      </trkpt>
      <trkpt lat="46.83417" lon="6.54283">
        <ele>1264.8000488281</ele>
        <time>2017-04-30T07:03:28.000Z</time>
      </trkpt>
      <trkpt lat="46.83416" lon="6.54273">
        <ele>1265.4000244141</ele>
        <time>2017-04-30T07:03:30.000Z</time>
      </trkpt>
      <trkpt lat="46.83412" lon="6.54254">
        <ele>1266</ele>
        <time>2017-04-30T07:03:34.000Z</time>
      </trkpt>
      <trkpt lat="46.8341" lon="6.54243">
        <ele>1266.5999755859</ele>
        <time>2017-04-30T07:03:36.000Z</time>
      </trkpt>
      <trkpt lat="46.83404" lon="6.54223">
        <ele>1267.8000488281</ele>
        <time>2017-04-30T07:03:40.000Z</time>
      </trkpt>
      <trkpt lat="46.83401" lon="6.54207">
        <ele>1269</ele>
        <time>2017-04-30T07:03:43.000Z</time>
      </trkpt>
      <trkpt lat="46.83399" lon="6.54198">
        <ele>1269.5999755859</ele>
        <time>2017-04-30T07:03:45.000Z</time>
      </trkpt>
      <trkpt lat="46.83398" lon="6.54189">
        <ele>1270.1999511719</ele>
        <time>2017-04-30T07:03:47.000Z</time>
      </trkpt>
      <trkpt lat="46.83397" lon="6.54174">
        <ele>1271.1999511719</ele>
        <time>2017-04-30T07:03:50.000Z</time>
      </trkpt>
      <trkpt lat="46.83398" lon="6.54159">
        <ele>1272.4000244141</ele>
        <time>2017-04-30T07:03:53.000Z</time>
      </trkpt>
      <trkpt lat="46.83401" lon="6.54151">
        <ele>1273.4000244141</ele>
        <time>2017-04-30T07:03:55.000Z</time>
      </trkpt>
      <trkpt lat="46.83402" lon="6.54148">
        <ele>1274</ele>
        <time>2017-04-30T07:03:56.000Z</time>
      </trkpt>
      <trkpt lat="46.83406" lon="6.54142">
        <ele>1275</ele>
        <time>2017-04-30T07:03:58.000Z</time>
      </trkpt>
      <trkpt lat="46.83411" lon="6.54141">
        <ele>1275.8000488281</ele>
        <time>2017-04-30T07:04:00.000Z</time>
      </trkpt>
      <trkpt lat="46.83413" lon="6.54142">
        <ele>1276</ele>
        <time>2017-04-30T07:04:01.000Z</time>
      </trkpt>
      <trkpt lat="46.83415" lon="6.54143">
        <ele>1276.5999755859</ele>
        <time>2017-04-30T07:04:02.000Z</time>
      </trkpt>
      <trkpt lat="46.83417" lon="6.54145">
        <ele>1277.1999511719</ele>
        <time>2017-04-30T07:04:03.000Z</time>
      </trkpt>
      <trkpt lat="46.83422" lon="6.5415">
        <ele>1278.1999511719</ele>
        <time>2017-04-30T07:04:06.000Z</time>
      </trkpt>
      <trkpt lat="46.83431" lon="6.54164">
        <ele>1279.5999755859</ele>
        <time>2017-04-30T07:04:11.000Z</time>
      </trkpt>
      <trkpt lat="46.83436" lon="6.54172">
        <ele>1280.8000488281</ele>
        <time>2017-04-30T07:04:14.000Z</time>
      </trkpt>
      <trkpt lat="46.83441" lon="6.54181">
        <ele>1281.5999755859</ele>
        <time>2017-04-30T07:04:17.000Z</time>
      </trkpt>
      <trkpt lat="46.83443" lon="6.54184">
        <ele>1282.1999511719</ele>
        <time>2017-04-30T07:04:18.000Z</time>
      </trkpt>
      <trkpt lat="46.83449" lon="6.54195">
        <ele>1283.5999755859</ele>
        <time>2017-04-30T07:04:22.000Z</time>
      </trkpt>
      <trkpt lat="46.83454" lon="6.54206">
        <ele>1284.1999511719</ele>
        <time>2017-04-30T07:04:25.000Z</time>
      </trkpt>
      <trkpt lat="46.83458" lon="6.54215">
        <ele>1284.4000244141</ele>
        <time>2017-04-30T07:04:27.000Z</time>
      </trkpt>
      <trkpt lat="46.83468" lon="6.54239">
        <ele>1284.4000244141</ele>
        <time>2017-04-30T07:04:32.000Z</time>
      </trkpt>
      <trkpt lat="46.83473" lon="6.54247">
        <ele>1284.5999755859</ele>
        <time>2017-04-30T07:04:34.000Z</time>
      </trkpt>
      <trkpt lat="46.8348" lon="6.54262">
        <ele>1285</ele>
        <time>2017-04-30T07:04:37.000Z</time>
      </trkpt>
      <trkpt lat="46.83489" lon="6.5428">
        <ele>1285.8000488281</ele>
        <time>2017-04-30T07:04:41.000Z</time>
      </trkpt>
      <trkpt lat="46.83493" lon="6.54287">
        <ele>1286.5999755859</ele>
        <time>2017-04-30T07:04:43.000Z</time>
      </trkpt>
      <trkpt lat="46.83495" lon="6.5429">
        <ele>1287</ele>
        <time>2017-04-30T07:04:44.000Z</time>
      </trkpt>
      <trkpt lat="46.83501" lon="6.54299">
        <ele>1288.5999755859</ele>
        <time>2017-04-30T07:04:47.000Z</time>
      </trkpt>
      <trkpt lat="46.83504" lon="6.54303">
        <ele>1289</ele>
        <time>2017-04-30T07:04:48.000Z</time>
      </trkpt>
      <trkpt lat="46.83513" lon="6.54317">
        <ele>1289.4000244141</ele>
        <time>2017-04-30T07:04:52.000Z</time>
      </trkpt>
      <trkpt lat="46.83517" lon="6.5432">
        <ele>1289.5999755859</ele>
        <time>2017-04-30T07:04:53.000Z</time>
      </trkpt>
      <trkpt lat="46.8352" lon="6.54323">
        <ele>1289.5999755859</ele>
        <time>2017-04-30T07:04:54.000Z</time>
      </trkpt>
      <trkpt lat="46.8353" lon="6.54332">
        <ele>1290</ele>
        <time>2017-04-30T07:04:57.000Z</time>
      </trkpt>
      <trkpt lat="46.8354" lon="6.5434">
        <ele>1290.8000488281</ele>
        <time>2017-04-30T07:05:00.000Z</time>
      </trkpt>
      <trkpt lat="46.83543" lon="6.54342">
        <ele>1291</ele>
        <time>2017-04-30T07:05:01.000Z</time>
      </trkpt>
      <trkpt lat="46.83554" lon="6.54345">
        <ele>1291.8000488281</ele>
        <time>2017-04-30T07:05:04.000Z</time>
      </trkpt>
      <trkpt lat="46.83557" lon="6.54345">
        <ele>1292</ele>
        <time>2017-04-30T07:05:05.000Z</time>
      </trkpt>
      <trkpt lat="46.83568" lon="6.54346">
        <ele>1293.1999511719</ele>
        <time>2017-04-30T07:05:08.000Z</time>
      </trkpt>
      <trkpt lat="46.83575" lon="6.54347">
        <ele>1293.5999755859</ele>
        <time>2017-04-30T07:05:10.000Z</time>
      </trkpt>
      <trkpt lat="46.8359" lon="6.54352">
        <ele>1293.5999755859</ele>
        <time>2017-04-30T07:05:14.000Z</time>
      </trkpt>
      <trkpt lat="46.83606" lon="6.54362">
        <ele>1293.8000488281</ele>
        <time>2017-04-30T07:05:18.000Z</time>
      </trkpt>
      <trkpt lat="46.83614" lon="6.54368">
        <ele>1294.4000244141</ele>
        <time>2017-04-30T07:05:20.000Z</time>
      </trkpt>
      <trkpt lat="46.83623" lon="6.54377">
        <ele>1295.8000488281</ele>
        <time>2017-04-30T07:05:23.000Z</time>
      </trkpt>
      <trkpt lat="46.83633" lon="6.54388">
        <ele>1296.4000244141</ele>
        <time>2017-04-30T07:05:26.000Z</time>
      </trkpt>
      <trkpt lat="46.83639" lon="6.54397">
        <ele>1296.8000488281</ele>
        <time>2017-04-30T07:05:28.000Z</time>
      </trkpt>
      <trkpt lat="46.83646" lon="6.54412">
        <ele>1296.8000488281</ele>
        <time>2017-04-30T07:05:31.000Z</time>
      </trkpt>
      <trkpt lat="46.83648" lon="6.54417">
        <ele>1297</ele>
        <time>2017-04-30T07:05:32.000Z</time>
      </trkpt>
      <trkpt lat="46.83651" lon="6.54421">
        <ele>1297.1999511719</ele>
        <time>2017-04-30T07:05:33.000Z</time>
      </trkpt>
      <trkpt lat="46.83657" lon="6.54428">
        <ele>1298</ele>
        <time>2017-04-30T07:05:35.000Z</time>
      </trkpt>
      <trkpt lat="46.83663" lon="6.54435">
        <ele>1299.1999511719</ele>
        <time>2017-04-30T07:05:37.000Z</time>
      </trkpt>
      <trkpt lat="46.83675" lon="6.54448">
        <ele>1300.5999755859</ele>
        <time>2017-04-30T07:05:41.000Z</time>
      </trkpt>
      <trkpt lat="46.83678" lon="6.54451">
        <ele>1301</ele>
        <time>2017-04-30T07:05:42.000Z</time>
      </trkpt>
      <trkpt lat="46.83686" lon="6.5446">
        <ele>1302</ele>
        <time>2017-04-30T07:05:45.000Z</time>
      </trkpt>
      <trkpt lat="46.83696" lon="6.5447">
        <ele>1302.8000488281</ele>
        <time>2017-04-30T07:05:48.000Z</time>
      </trkpt>
      <trkpt lat="46.83702" lon="6.54476">
        <ele>1303</ele>
        <time>2017-04-30T07:05:50.000Z</time>
      </trkpt>
      <trkpt lat="46.83716" lon="6.54484">
        <ele>1304.1999511719</ele>
        <time>2017-04-30T07:05:54.000Z</time>
      </trkpt>
      <trkpt lat="46.83726" lon="6.54492">
        <ele>1305.4000244141</ele>
        <time>2017-04-30T07:05:57.000Z</time>
      </trkpt>
      <trkpt lat="46.83735" lon="6.545">
        <ele>1306.5999755859</ele>
        <time>2017-04-30T07:06:00.000Z</time>
      </trkpt>
      <trkpt lat="46.83747" lon="6.54514">
        <ele>1307.1999511719</ele>
        <time>2017-04-30T07:06:04.000Z</time>
      </trkpt>
      <trkpt lat="46.83754" lon="6.5452">
        <ele>1307.1999511719</ele>
        <time>2017-04-30T07:06:06.000Z</time>
      </trkpt>
      <trkpt lat="46.83758" lon="6.54523">
        <ele>1307.1999511719</ele>
        <time>2017-04-30T07:06:07.000Z</time>
      </trkpt>
      <trkpt lat="46.83771" lon="6.54527">
        <ele>1307.5999755859</ele>
        <time>2017-04-30T07:06:10.000Z</time>
      </trkpt>
      <trkpt lat="46.83776" lon="6.54529">
        <ele>1307.8000488281</ele>
        <time>2017-04-30T07:06:11.000Z</time>
      </trkpt>
      <trkpt lat="46.83811" lon="6.54541">
        <ele>1307.8000488281</ele>
        <time>2017-04-30T07:06:18.000Z</time>
      </trkpt>
      <trkpt lat="46.8382" lon="6.54547">
        <ele>1307.8000488281</ele>
        <time>2017-04-30T07:06:20.000Z</time>
      </trkpt>
      <trkpt lat="46.83829" lon="6.54555">
        <ele>1308.1999511719</ele>
        <time>2017-04-30T07:06:22.000Z</time>
      </trkpt>
      <trkpt lat="46.83833" lon="6.5456">
        <ele>1308.4000244141</ele>
        <time>2017-04-30T07:06:23.000Z</time>
      </trkpt>
      <trkpt lat="46.83836" lon="6.54566">
        <ele>1308.8000488281</ele>
        <time>2017-04-30T07:06:24.000Z</time>
      </trkpt>
      <trkpt lat="46.83841" lon="6.54578">
        <ele>1309.1999511719</ele>
        <time>2017-04-30T07:06:26.000Z</time>
      </trkpt>
      <trkpt lat="46.83846" lon="6.54591">
        <ele>1309.4000244141</ele>
        <time>2017-04-30T07:06:28.000Z</time>
      </trkpt>
      <trkpt lat="46.83852" lon="6.54605">
        <ele>1309.4000244141</ele>
        <time>2017-04-30T07:06:30.000Z</time>
      </trkpt>
      <trkpt lat="46.83858" lon="6.54617">
        <ele>1309.5999755859</ele>
        <time>2017-04-30T07:06:32.000Z</time>
      </trkpt>
      <trkpt lat="46.83862" lon="6.54622">
        <ele>1309.5999755859</ele>
        <time>2017-04-30T07:06:33.000Z</time>
      </trkpt>
      <trkpt lat="46.83866" lon="6.54628">
        <ele>1309.8000488281</ele>
        <time>2017-04-30T07:06:34.000Z</time>
      </trkpt>
      <trkpt lat="46.83869" lon="6.54633">
        <ele>1310</ele>
        <time>2017-04-30T07:06:35.000Z</time>
      </trkpt>
      <trkpt lat="46.83881" lon="6.54644">
        <ele>1310.1999511719</ele>
        <time>2017-04-30T07:06:38.000Z</time>
      </trkpt>
      <trkpt lat="46.83891" lon="6.54656">
        <ele>1311.4000244141</ele>
        <time>2017-04-30T07:06:41.000Z</time>
      </trkpt>
      <trkpt lat="46.83895" lon="6.5466">
        <ele>1311.5999755859</ele>
        <time>2017-04-30T07:06:42.000Z</time>
      </trkpt>
      <trkpt lat="46.83901" lon="6.54668">
        <ele>1311.8000488281</ele>
        <time>2017-04-30T07:06:44.000Z</time>
      </trkpt>
      <trkpt lat="46.83911" lon="6.54677">
        <ele>1312.8000488281</ele>
        <time>2017-04-30T07:06:47.000Z</time>
      </trkpt>
      <trkpt lat="46.83914" lon="6.5468">
        <ele>1313.4000244141</ele>
        <time>2017-04-30T07:06:48.000Z</time>
      </trkpt>
      <trkpt lat="46.83917" lon="6.54683">
        <ele>1314.1999511719</ele>
        <time>2017-04-30T07:06:49.000Z</time>
      </trkpt>
      <trkpt lat="46.83925" lon="6.54692">
        <ele>1315.4000244141</ele>
        <time>2017-04-30T07:06:52.000Z</time>
      </trkpt>
      <trkpt lat="46.83927" lon="6.54696">
        <ele>1315.8000488281</ele>
        <time>2017-04-30T07:06:53.000Z</time>
      </trkpt>
      <trkpt lat="46.83936" lon="6.54705">
        <ele>1316.5999755859</ele>
        <time>2017-04-30T07:06:56.000Z</time>
      </trkpt>
      <trkpt lat="46.83942" lon="6.5471">
        <ele>1317.8000488281</ele>
        <time>2017-04-30T07:06:58.000Z</time>
      </trkpt>
      <trkpt lat="46.83952" lon="6.54717">
        <ele>1318.8000488281</ele>
        <time>2017-04-30T07:07:01.000Z</time>
      </trkpt>
      <trkpt lat="46.83964" lon="6.54725">
        <ele>1319.5999755859</ele>
        <time>2017-04-30T07:07:05.000Z</time>
      </trkpt>
      <trkpt lat="46.83967" lon="6.54727">
        <ele>1320</ele>
        <time>2017-04-30T07:07:06.000Z</time>
      </trkpt>
      <trkpt lat="46.83974" lon="6.5473">
        <ele>1321</ele>
        <time>2017-04-30T07:07:08.000Z</time>
      </trkpt>
      <trkpt lat="46.83983" lon="6.54735">
        <ele>1322.4000244141</ele>
        <time>2017-04-30T07:07:11.000Z</time>
      </trkpt>
      <trkpt lat="46.83986" lon="6.54737">
        <ele>1322.8000488281</ele>
        <time>2017-04-30T07:07:12.000Z</time>
      </trkpt>
      <trkpt lat="46.83992" lon="6.54741">
        <ele>1323.5999755859</ele>
        <time>2017-04-30T07:07:14.000Z</time>
      </trkpt>
      <trkpt lat="46.84" lon="6.54746">
        <ele>1325</ele>
        <time>2017-04-30T07:07:17.000Z</time>
      </trkpt>
      <trkpt lat="46.84003" lon="6.54748">
        <ele>1325.5999755859</ele>
        <time>2017-04-30T07:07:18.000Z</time>
      </trkpt>
      <trkpt lat="46.84005" lon="6.5475">
        <ele>1326.1999511719</ele>
        <time>2017-04-30T07:07:19.000Z</time>
      </trkpt>
      <trkpt lat="46.84013" lon="6.54756">
        <ele>1327.4000244141</ele>
        <time>2017-04-30T07:07:22.000Z</time>
      </trkpt>
      <trkpt lat="46.84018" lon="6.54759">
        <ele>1328.1999511719</ele>
        <time>2017-04-30T07:07:24.000Z</time>
      </trkpt>
      <trkpt lat="46.84027" lon="6.54761">
        <ele>1329</ele>
        <time>2017-04-30T07:07:27.000Z</time>
      </trkpt>
      <trkpt lat="46.84032" lon="6.54764">
        <ele>1329.8000488281</ele>
        <time>2017-04-30T07:07:29.000Z</time>
      </trkpt>
      <trkpt lat="46.84035" lon="6.54765">
        <ele>1330.1999511719</ele>
        <time>2017-04-30T07:07:30.000Z</time>
      </trkpt>
      <trkpt lat="46.84044" lon="6.54768">
        <ele>1331.4000244141</ele>
        <time>2017-04-30T07:07:33.000Z</time>
      </trkpt>
      <trkpt lat="46.84052" lon="6.5477">
        <ele>1332.5999755859</ele>
        <time>2017-04-30T07:07:36.000Z</time>
      </trkpt>
      <trkpt lat="46.84058" lon="6.54773">
        <ele>1333.4000244141</ele>
        <time>2017-04-30T07:07:38.000Z</time>
      </trkpt>
      <trkpt lat="46.8406" lon="6.54774">
        <ele>1333.8000488281</ele>
        <time>2017-04-30T07:07:39.000Z</time>
      </trkpt>
      <trkpt lat="46.84068" lon="6.54779">
        <ele>1334.8000488281</ele>
        <time>2017-04-30T07:07:42.000Z</time>
      </trkpt>
      <trkpt lat="46.84076" lon="6.54786">
        <ele>1335.8000488281</ele>
        <time>2017-04-30T07:07:45.000Z</time>
      </trkpt>
      <trkpt lat="46.84078" lon="6.54788">
        <ele>1336.1999511719</ele>
        <time>2017-04-30T07:07:46.000Z</time>
      </trkpt>
      <trkpt lat="46.84087" lon="6.54799">
        <ele>1337.4000244141</ele>
        <time>2017-04-30T07:07:50.000Z</time>
      </trkpt>
      <trkpt lat="46.84089" lon="6.54802">
        <ele>1337.5999755859</ele>
        <time>2017-04-30T07:07:51.000Z</time>
      </trkpt>
      <trkpt lat="46.84093" lon="6.54808">
        <ele>1339</ele>
        <time>2017-04-30T07:07:53.000Z</time>
      </trkpt>
      <trkpt lat="46.841" lon="6.54823">
        <ele>1340.1999511719</ele>
        <time>2017-04-30T07:07:57.000Z</time>
      </trkpt>
      <trkpt lat="46.84102" lon="6.54827">
        <ele>1340.1999511719</ele>
        <time>2017-04-30T07:07:58.000Z</time>
      </trkpt>
      <trkpt lat="46.84112" lon="6.54852">
        <ele>1340.5999755859</ele>
        <time>2017-04-30T07:08:04.000Z</time>
      </trkpt>
      <trkpt lat="46.84114" lon="6.54857">
        <ele>1340.5999755859</ele>
        <time>2017-04-30T07:08:05.000Z</time>
      </trkpt>
      <trkpt lat="46.84119" lon="6.54876">
        <ele>1339.1999511719</ele>
        <time>2017-04-30T07:08:08.000Z</time>
      </trkpt>
      <trkpt lat="46.84121" lon="6.54882">
        <ele>1338.8000488281</ele>
        <time>2017-04-30T07:08:09.000Z</time>
      </trkpt>
      <trkpt lat="46.84123" lon="6.54905">
        <ele>1338</ele>
        <time>2017-04-30T07:08:12.000Z</time>
      </trkpt>
      <trkpt lat="46.84123" lon="6.54912">
        <ele>1337.5999755859</ele>
        <time>2017-04-30T07:08:13.000Z</time>
      </trkpt>
      <trkpt lat="46.84124" lon="6.54927">
        <ele>1336</ele>
        <time>2017-04-30T07:08:15.000Z</time>
      </trkpt>
      <trkpt lat="46.84123" lon="6.54934">
        <ele>1334.5999755859</ele>
        <time>2017-04-30T07:08:16.000Z</time>
      </trkpt>
      <trkpt lat="46.8412" lon="6.54941">
        <ele>1333.4000244141</ele>
        <time>2017-04-30T07:08:18.000Z</time>
      </trkpt>
      <trkpt lat="46.84117" lon="6.54946">
        <ele>1332.5999755859</ele>
        <time>2017-04-30T07:08:20.000Z</time>
      </trkpt>
      <trkpt lat="46.84116" lon="6.54955">
        <ele>1331.4000244141</ele>
        <time>2017-04-30T07:08:23.000Z</time>
      </trkpt>
      <trkpt lat="46.84118" lon="6.54961">
        <ele>1330.4000244141</ele>
        <time>2017-04-30T07:08:25.000Z</time>
      </trkpt>
      <trkpt lat="46.84118" lon="6.54971">
        <ele>1330.1999511719</ele>
        <time>2017-04-30T07:08:27.000Z</time>
      </trkpt>
      <trkpt lat="46.8412" lon="6.54983">
        <ele>1329.8000488281</ele>
        <time>2017-04-30T07:08:29.000Z</time>
      </trkpt>
      <trkpt lat="46.84121" lon="6.54989">
        <ele>1329.4000244141</ele>
        <time>2017-04-30T07:08:30.000Z</time>
      </trkpt>
      <trkpt lat="46.84124" lon="6.55001">
        <ele>1329</ele>
        <time>2017-04-30T07:08:32.000Z</time>
      </trkpt>
      <trkpt lat="46.84126" lon="6.55012">
        <ele>1328.1999511719</ele>
        <time>2017-04-30T07:08:34.000Z</time>
      </trkpt>
      <trkpt lat="46.84128" lon="6.55023">
        <ele>1327.8000488281</ele>
        <time>2017-04-30T07:08:36.000Z</time>
      </trkpt>
      <trkpt lat="46.84132" lon="6.55038">
        <ele>1327</ele>
        <time>2017-04-30T07:08:38.000Z</time>
      </trkpt>
      <trkpt lat="46.84134" lon="6.55051">
        <ele>1326</ele>
        <time>2017-04-30T07:08:40.000Z</time>
      </trkpt>
      <trkpt lat="46.84134" lon="6.55063">
        <ele>1324</ele>
        <time>2017-04-30T07:08:42.000Z</time>
      </trkpt>
      <trkpt lat="46.84134" lon="6.55075">
        <ele>1322.8000488281</ele>
        <time>2017-04-30T07:08:44.000Z</time>
      </trkpt>
      <trkpt lat="46.84136" lon="6.55084">
        <ele>1321.4000244141</ele>
        <time>2017-04-30T07:08:45.000Z</time>
      </trkpt>
      <trkpt lat="46.84138" lon="6.55092">
        <ele>1320.4000244141</ele>
        <time>2017-04-30T07:08:46.000Z</time>
      </trkpt>
      <trkpt lat="46.84141" lon="6.551">
        <ele>1319.5999755859</ele>
        <time>2017-04-30T07:08:47.000Z</time>
      </trkpt>
      <trkpt lat="46.84143" lon="6.55106">
        <ele>1319.1999511719</ele>
        <time>2017-04-30T07:08:48.000Z</time>
      </trkpt>
      <trkpt lat="46.84147" lon="6.55124">
        <ele>1319.1999511719</ele>
        <time>2017-04-30T07:08:51.000Z</time>
      </trkpt>
      <trkpt lat="46.84155" lon="6.55143">
        <ele>1318.1999511719</ele>
        <time>2017-04-30T07:08:55.000Z</time>
      </trkpt>
      <trkpt lat="46.84165" lon="6.5516">
        <ele>1317.1999511719</ele>
        <time>2017-04-30T07:08:58.000Z</time>
      </trkpt>
      <trkpt lat="46.84168" lon="6.55165">
        <ele>1317</ele>
        <time>2017-04-30T07:08:59.000Z</time>
      </trkpt>
      <trkpt lat="46.84182" lon="6.55184">
        <ele>1317.4000244141</ele>
        <time>2017-04-30T07:09:03.000Z</time>
      </trkpt>
      <trkpt lat="46.84199" lon="6.55201">
        <ele>1317.1999511719</ele>
        <time>2017-04-30T07:09:08.000Z</time>
      </trkpt>
      <trkpt lat="46.8421" lon="6.55215">
        <ele>1317.1999511719</ele>
        <time>2017-04-30T07:09:12.000Z</time>
      </trkpt>
      <trkpt lat="46.84214" lon="6.5522">
        <ele>1317</ele>
        <time>2017-04-30T07:09:14.000Z</time>
      </trkpt>
      <trkpt lat="46.84219" lon="6.55225">
        <ele>1316.4000244141</ele>
        <time>2017-04-30T07:09:16.000Z</time>
      </trkpt>
      <trkpt lat="46.84224" lon="6.55231">
        <ele>1316</ele>
        <time>2017-04-30T07:09:18.000Z</time>
      </trkpt>
      <trkpt lat="46.8423" lon="6.55244">
        <ele>1315.4000244141</ele>
        <time>2017-04-30T07:09:20.000Z</time>
      </trkpt>
      <trkpt lat="46.84234" lon="6.55249">
        <ele>1315</ele>
        <time>2017-04-30T07:09:21.000Z</time>
      </trkpt>
      <trkpt lat="46.84236" lon="6.55252">
        <ele>1314.5999755859</ele>
        <time>2017-04-30T07:09:22.000Z</time>
      </trkpt>
      <trkpt lat="46.84239" lon="6.55254">
        <ele>1314.1999511719</ele>
        <time>2017-04-30T07:09:23.000Z</time>
      </trkpt>
      <trkpt lat="46.84252" lon="6.55257">
        <ele>1314.4000244141</ele>
        <time>2017-04-30T07:09:27.000Z</time>
      </trkpt>
      <trkpt lat="46.84258" lon="6.5526">
        <ele>1314</ele>
        <time>2017-04-30T07:09:32.000Z</time>
      </trkpt>
      <trkpt lat="46.84261" lon="6.5526">
        <ele>1313.8000488281</ele>
        <time>2017-04-30T07:09:35.000Z</time>
      </trkpt>
      <trkpt lat="46.84263" lon="6.5526">
        <ele>1314</ele>
        <time>2017-04-30T07:09:39.000Z</time>
      </trkpt>
      <trkpt lat="46.8427" lon="6.55256">
        <ele>1314.4000244141</ele>
        <time>2017-04-30T07:09:47.000Z</time>
      </trkpt>
      <trkpt lat="46.84272" lon="6.55253">
        <ele>1315.5999755859</ele>
        <time>2017-04-30T07:09:52.000Z</time>
      </trkpt>
      <trkpt lat="46.84273" lon="6.55251">
        <ele>1315.5999755859</ele>
        <time>2017-04-30T07:09:54.000Z</time>
      </trkpt>
      <trkpt lat="46.84278" lon="6.55248">
        <ele>1316</ele>
        <time>2017-04-30T07:10:01.000Z</time>
      </trkpt>
      <trkpt lat="46.84284" lon="6.55248">
        <ele>1316.1999511719</ele>
        <time>2017-04-30T07:10:08.000Z</time>
      </trkpt>
      <trkpt lat="46.84285" lon="6.55249">
        <ele>1316.1999511719</ele>
        <time>2017-04-30T07:10:09.000Z</time>
      </trkpt>
      <trkpt lat="46.84296" lon="6.55257">
        <ele>1316.4000244141</ele>
        <time>2017-04-30T07:10:13.000Z</time>
      </trkpt>
      <trkpt lat="46.84301" lon="6.5526">
        <ele>1317</ele>
        <time>2017-04-30T07:10:15.000Z</time>
      </trkpt>
      <trkpt lat="46.84309" lon="6.55267">
        <ele>1317.1999511719</ele>
        <time>2017-04-30T07:10:19.000Z</time>
      </trkpt>
      <trkpt lat="46.84315" lon="6.55271">
        <ele>1317</ele>
        <time>2017-04-30T07:10:22.000Z</time>
      </trkpt>
      <trkpt lat="46.84317" lon="6.55271">
        <ele>1317</ele>
        <time>2017-04-30T07:10:23.000Z</time>
      </trkpt>
      <trkpt lat="46.84328" lon="6.55279">
        <ele>1316.5999755859</ele>
        <time>2017-04-30T07:10:28.000Z</time>
      </trkpt>
      <trkpt lat="46.84339" lon="6.55291">
        <ele>1316.5999755859</ele>
        <time>2017-04-30T07:10:32.000Z</time>
      </trkpt>
      <trkpt lat="46.84346" lon="6.55299">
        <ele>1316</ele>
        <time>2017-04-30T07:10:35.000Z</time>
      </trkpt>
      <trkpt lat="46.84348" lon="6.55302">
        <ele>1315.5999755859</ele>
        <time>2017-04-30T07:10:36.000Z</time>
      </trkpt>
      <trkpt lat="46.84352" lon="6.55308">
        <ele>1314</ele>
        <time>2017-04-30T07:10:38.000Z</time>
      </trkpt>
      <trkpt lat="46.84355" lon="6.55312">
        <ele>1313.1999511719</ele>
        <time>2017-04-30T07:10:39.000Z</time>
      </trkpt>
      <trkpt lat="46.84359" lon="6.55318">
        <ele>1312.4000244141</ele>
        <time>2017-04-30T07:10:40.000Z</time>
      </trkpt>
      <trkpt lat="46.84363" lon="6.55324">
        <ele>1311.1999511719</ele>
        <time>2017-04-30T07:10:41.000Z</time>
      </trkpt>
      <trkpt lat="46.84366" lon="6.55335">
        <ele>1310.1999511719</ele>
        <time>2017-04-30T07:10:43.000Z</time>
      </trkpt>
      <trkpt lat="46.84372" lon="6.55354">
        <ele>1308.8000488281</ele>
        <time>2017-04-30T07:10:46.000Z</time>
      </trkpt>
      <trkpt lat="46.84374" lon="6.55359">
        <ele>1307.8000488281</ele>
        <time>2017-04-30T07:10:47.000Z</time>
      </trkpt>
      <trkpt lat="46.84376" lon="6.55362">
        <ele>1306.8000488281</ele>
        <time>2017-04-30T07:10:48.000Z</time>
      </trkpt>
      <trkpt lat="46.84378" lon="6.55365">
        <ele>1306</ele>
        <time>2017-04-30T07:10:49.000Z</time>
      </trkpt>
      <trkpt lat="46.8438" lon="6.55367">
        <ele>1305.8000488281</ele>
        <time>2017-04-30T07:10:50.000Z</time>
      </trkpt>
      <trkpt lat="46.84384" lon="6.55375">
        <ele>1305.5999755859</ele>
        <time>2017-04-30T07:10:52.000Z</time>
      </trkpt>
      <trkpt lat="46.84384" lon="6.55378">
        <ele>1305.5999755859</ele>
        <time>2017-04-30T07:10:53.000Z</time>
      </trkpt>
      <trkpt lat="46.84384" lon="6.55382">
        <ele>1305</ele>
        <time>2017-04-30T07:10:54.000Z</time>
      </trkpt>
      <trkpt lat="46.84387" lon="6.55389">
        <ele>1303.4000244141</ele>
        <time>2017-04-30T07:10:56.000Z</time>
      </trkpt>
      <trkpt lat="46.84391" lon="6.55394">
        <ele>1302.5999755859</ele>
        <time>2017-04-30T07:10:58.000Z</time>
      </trkpt>
      <trkpt lat="46.84395" lon="6.55397">
        <ele>1302.8000488281</ele>
        <time>2017-04-30T07:11:00.000Z</time>
      </trkpt>
      <trkpt lat="46.84399" lon="6.55404">
        <ele>1303.1999511719</ele>
        <time>2017-04-30T07:11:02.000Z</time>
      </trkpt>
      <trkpt lat="46.84405" lon="6.55418">
        <ele>1303.5999755859</ele>
        <time>2017-04-30T07:11:06.000Z</time>
      </trkpt>
      <trkpt lat="46.84408" lon="6.55426">
        <ele>1303.5999755859</ele>
        <time>2017-04-30T07:11:08.000Z</time>
      </trkpt>
      <trkpt lat="46.84414" lon="6.55443">
        <ele>1303.4000244141</ele>
        <time>2017-04-30T07:11:12.000Z</time>
      </trkpt>
      <trkpt lat="46.84413" lon="6.55467">
        <ele>1301.5999755859</ele>
        <time>2017-04-30T07:11:17.000Z</time>
      </trkpt>
      <trkpt lat="46.84412" lon="6.55471">
        <ele>1300.5999755859</ele>
        <time>2017-04-30T07:11:18.000Z</time>
      </trkpt>
      <trkpt lat="46.8441" lon="6.55476">
        <ele>1299</ele>
        <time>2017-04-30T07:11:19.000Z</time>
      </trkpt>
      <trkpt lat="46.84407" lon="6.55481">
        <ele>1297.8000488281</ele>
        <time>2017-04-30T07:11:20.000Z</time>
      </trkpt>
      <trkpt lat="46.84404" lon="6.55485">
        <ele>1296.5999755859</ele>
        <time>2017-04-30T07:11:21.000Z</time>
      </trkpt>
      <trkpt lat="46.84401" lon="6.55489">
        <ele>1295.5999755859</ele>
        <time>2017-04-30T07:11:22.000Z</time>
      </trkpt>
      <trkpt lat="46.84399" lon="6.55494">
        <ele>1294.5999755859</ele>
        <time>2017-04-30T07:11:23.000Z</time>
      </trkpt>
      <trkpt lat="46.84397" lon="6.55498">
        <ele>1293.8000488281</ele>
        <time>2017-04-30T07:11:24.000Z</time>
      </trkpt>
      <trkpt lat="46.84395" lon="6.55502">
        <ele>1292.8000488281</ele>
        <time>2017-04-30T07:11:25.000Z</time>
      </trkpt>
      <trkpt lat="46.84394" lon="6.55507">
        <ele>1292</ele>
        <time>2017-04-30T07:11:26.000Z</time>
      </trkpt>
      <trkpt lat="46.84391" lon="6.55515">
        <ele>1290.1999511719</ele>
        <time>2017-04-30T07:11:28.000Z</time>
      </trkpt>
      <trkpt lat="46.84389" lon="6.55521">
        <ele>1288.8000488281</ele>
        <time>2017-04-30T07:11:29.000Z</time>
      </trkpt>
      <trkpt lat="46.84389" lon="6.5553">
        <ele>1287.1999511719</ele>
        <time>2017-04-30T07:11:30.000Z</time>
      </trkpt>
      <trkpt lat="46.8439" lon="6.55537">
        <ele>1286.1999511719</ele>
        <time>2017-04-30T07:11:31.000Z</time>
      </trkpt>
      <trkpt lat="46.84391" lon="6.55545">
        <ele>1285.5999755859</ele>
        <time>2017-04-30T07:11:32.000Z</time>
      </trkpt>
      <trkpt lat="46.84392" lon="6.55563">
        <ele>1284.8000488281</ele>
        <time>2017-04-30T07:11:34.000Z</time>
      </trkpt>
      <trkpt lat="46.84391" lon="6.5557">
        <ele>1284.4000244141</ele>
        <time>2017-04-30T07:11:35.000Z</time>
      </trkpt>
      <trkpt lat="46.8439" lon="6.55577">
        <ele>1283</ele>
        <time>2017-04-30T07:11:36.000Z</time>
      </trkpt>
      <trkpt lat="46.8439" lon="6.55585">
        <ele>1281.4000244141</ele>
        <time>2017-04-30T07:11:37.000Z</time>
      </trkpt>
      <trkpt lat="46.8439" lon="6.55592">
        <ele>1280.4000244141</ele>
        <time>2017-04-30T07:11:38.000Z</time>
      </trkpt>
      <trkpt lat="46.84391" lon="6.55598">
        <ele>1279.5999755859</ele>
        <time>2017-04-30T07:11:39.000Z</time>
      </trkpt>
      <trkpt lat="46.84392" lon="6.55605">
        <ele>1278.8000488281</ele>
        <time>2017-04-30T07:11:40.000Z</time>
      </trkpt>
      <trkpt lat="46.84393" lon="6.55612">
        <ele>1277.5999755859</ele>
        <time>2017-04-30T07:11:41.000Z</time>
      </trkpt>
      <trkpt lat="46.84393" lon="6.55622">
        <ele>1276.1999511719</ele>
        <time>2017-04-30T07:11:42.000Z</time>
      </trkpt>
      <trkpt lat="46.84393" lon="6.55632">
        <ele>1275</ele>
        <time>2017-04-30T07:11:43.000Z</time>
      </trkpt>
      <trkpt lat="46.84392" lon="6.55642">
        <ele>1274</ele>
        <time>2017-04-30T07:11:44.000Z</time>
      </trkpt>
      <trkpt lat="46.84392" lon="6.55651">
        <ele>1272</ele>
        <time>2017-04-30T07:11:45.000Z</time>
      </trkpt>
      <trkpt lat="46.84391" lon="6.55663">
        <ele>1270.5999755859</ele>
        <time>2017-04-30T07:11:46.000Z</time>
      </trkpt>
      <trkpt lat="46.84392" lon="6.55672">
        <ele>1269.1999511719</ele>
        <time>2017-04-30T07:11:47.000Z</time>
      </trkpt>
      <trkpt lat="46.84394" lon="6.55683">
        <ele>1267.8000488281</ele>
        <time>2017-04-30T07:11:48.000Z</time>
      </trkpt>
      <trkpt lat="46.84397" lon="6.55694">
        <ele>1266.8000488281</ele>
        <time>2017-04-30T07:11:49.000Z</time>
      </trkpt>
      <trkpt lat="46.844" lon="6.55705">
        <ele>1265.4000244141</ele>
        <time>2017-04-30T07:11:50.000Z</time>
      </trkpt>
      <trkpt lat="46.84403" lon="6.55712">
        <ele>1264.1999511719</ele>
        <time>2017-04-30T07:11:51.000Z</time>
      </trkpt>
      <trkpt lat="46.84408" lon="6.55727">
        <ele>1262.8000488281</ele>
        <time>2017-04-30T07:11:53.000Z</time>
      </trkpt>
      <trkpt lat="46.8441" lon="6.55736">
        <ele>1262.4000244141</ele>
        <time>2017-04-30T07:11:55.000Z</time>
      </trkpt>
      <trkpt lat="46.84407" lon="6.55744">
        <ele>1261.4000244141</ele>
        <time>2017-04-30T07:11:58.000Z</time>
      </trkpt>
      <trkpt lat="46.84406" lon="6.55751">
        <ele>1260.5999755859</ele>
        <time>2017-04-30T07:12:00.000Z</time>
      </trkpt>
      <trkpt lat="46.84406" lon="6.55757">
        <ele>1260</ele>
        <time>2017-04-30T07:12:01.000Z</time>
      </trkpt>
      <trkpt lat="46.84407" lon="6.55763">
        <ele>1259.4000244141</ele>
        <time>2017-04-30T07:12:02.000Z</time>
      </trkpt>
      <trkpt lat="46.84407" lon="6.55771">
        <ele>1258</ele>
        <time>2017-04-30T07:12:04.000Z</time>
      </trkpt>
      <trkpt lat="46.84405" lon="6.55775">
        <ele>1257.4000244141</ele>
        <time>2017-04-30T07:12:05.000Z</time>
      </trkpt>
      <trkpt lat="46.84404" lon="6.55779">
        <ele>1256.4000244141</ele>
        <time>2017-04-30T07:12:06.000Z</time>
      </trkpt>
      <trkpt lat="46.84398" lon="6.55782">
        <ele>1254.8000488281</ele>
        <time>2017-04-30T07:12:08.000Z</time>
      </trkpt>
      <trkpt lat="46.8439" lon="6.55776">
        <ele>1253.5999755859</ele>
        <time>2017-04-30T07:12:11.000Z</time>
      </trkpt>
      <trkpt lat="46.84387" lon="6.55772">
        <ele>1253.5999755859</ele>
        <time>2017-04-30T07:12:12.000Z</time>
      </trkpt>
      <trkpt lat="46.84381" lon="6.55766">
        <ele>1253.8000488281</ele>
        <time>2017-04-30T07:12:14.000Z</time>
      </trkpt>
      <trkpt lat="46.84373" lon="6.55758">
        <ele>1253.4000244141</ele>
        <time>2017-04-30T07:12:16.000Z</time>
      </trkpt>
      <trkpt lat="46.84361" lon="6.55746">
        <ele>1253</ele>
        <time>2017-04-30T07:12:19.000Z</time>
      </trkpt>
      <trkpt lat="46.84352" lon="6.55739">
        <ele>1253</ele>
        <time>2017-04-30T07:12:21.000Z</time>
      </trkpt>
      <trkpt lat="46.84348" lon="6.55736">
        <ele>1253</ele>
        <time>2017-04-30T07:12:22.000Z</time>
      </trkpt>
      <trkpt lat="46.8433" lon="6.55715">
        <ele>1252.5999755859</ele>
        <time>2017-04-30T07:12:26.000Z</time>
      </trkpt>
      <trkpt lat="46.84311" lon="6.55696">
        <ele>1252.4000244141</ele>
        <time>2017-04-30T07:12:31.000Z</time>
      </trkpt>
      <trkpt lat="46.84309" lon="6.55698">
        <ele>1252.4000244141</ele>
        <time>2017-04-30T07:12:35.000Z</time>
      </trkpt>
      <trkpt lat="46.84309" lon="6.55701">
        <ele>1251.8000488281</ele>
        <time>2017-04-30T07:12:39.000Z</time>
      </trkpt>
      <trkpt lat="46.84306" lon="6.55701">
        <ele>1251.8000488281</ele>
        <time>2017-04-30T07:13:01.000Z</time>
      </trkpt>
      <trkpt lat="46.84311" lon="6.557">
        <ele>1251.5999755859</ele>
        <time>2017-04-30T07:13:07.000Z</time>
      </trkpt>
      <trkpt lat="46.8431" lon="6.55702">
        <ele>1252.8000488281</ele>
        <time>2017-04-30T07:13:12.000Z</time>
      </trkpt>
      <trkpt lat="46.8431" lon="6.55702">
        <ele>1252.8000488281</ele>
        <time>2017-04-30T07:13:18.000Z</time>
      </trkpt>
      <trkpt lat="46.8431" lon="6.55704">
        <ele>1252.8000488281</ele>
        <time>2017-04-30T07:13:30.000Z</time>
      </trkpt>
      <trkpt lat="46.84315" lon="6.55708">
        <ele>1252.1999511719</ele>
        <time>2017-04-30T07:14:04.000Z</time>
      </trkpt>
      <trkpt lat="46.84315" lon="6.55708">
        <ele>1252.1999511719</ele>
        <time>2017-04-30T07:14:05.000Z</time>
      </trkpt>
      <trkpt lat="46.84316" lon="6.55709">
        <ele>1252.1999511719</ele>
        <time>2017-04-30T07:14:16.000Z</time>
      </trkpt>
      <trkpt lat="46.84318" lon="6.55726">
        <ele>1251.4000244141</ele>
        <time>2017-04-30T07:14:22.000Z</time>
      </trkpt>
      <trkpt lat="46.84321" lon="6.55733">
        <ele>1250.4000244141</ele>
        <time>2017-04-30T07:14:24.000Z</time>
      </trkpt>
      <trkpt lat="46.84323" lon="6.55739">
        <ele>1249.4000244141</ele>
        <time>2017-04-30T07:14:26.000Z</time>
      </trkpt>
      <trkpt lat="46.84324" lon="6.55742">
        <ele>1249</ele>
        <time>2017-04-30T07:14:27.000Z</time>
      </trkpt>
      <trkpt lat="46.84326" lon="6.55748">
        <ele>1248</ele>
        <time>2017-04-30T07:14:29.000Z</time>
      </trkpt>
      <trkpt lat="46.84325" lon="6.5575">
        <ele>1247.4000244141</ele>
        <time>2017-04-30T07:14:30.000Z</time>
      </trkpt>
      <trkpt lat="46.84327" lon="6.55753">
        <ele>1246.4000244141</ele>
        <time>2017-04-30T07:14:35.000Z</time>
      </trkpt>
      <trkpt lat="46.84328" lon="6.55754">
        <ele>1246.4000244141</ele>
        <time>2017-04-30T07:14:36.000Z</time>
      </trkpt>
      <trkpt lat="46.84331" lon="6.55757">
        <ele>1246.4000244141</ele>
        <time>2017-04-30T07:14:41.000Z</time>
      </trkpt>
      <trkpt lat="46.8433" lon="6.5576">
        <ele>1246</ele>
        <time>2017-04-30T07:14:50.000Z</time>
      </trkpt>
      <trkpt lat="46.8433" lon="6.55766">
        <ele>1245.8000488281</ele>
        <time>2017-04-30T07:14:54.000Z</time>
      </trkpt>
      <trkpt lat="46.8433" lon="6.55768">
        <ele>1245.5999755859</ele>
        <time>2017-04-30T07:14:55.000Z</time>
      </trkpt>
      <trkpt lat="46.8433" lon="6.55769">
        <ele>1245</ele>
        <time>2017-04-30T07:14:56.000Z</time>
      </trkpt>
      <trkpt lat="46.84326" lon="6.55777">
        <ele>1243.8000488281</ele>
        <time>2017-04-30T07:15:01.000Z</time>
      </trkpt>
      <trkpt lat="46.84318" lon="6.55773">
        <ele>1243.4000244141</ele>
        <time>2017-04-30T07:15:06.000Z</time>
      </trkpt>
      <trkpt lat="46.84312" lon="6.55767">
        <ele>1243.4000244141</ele>
        <time>2017-04-30T07:15:08.000Z</time>
      </trkpt>
      <trkpt lat="46.84302" lon="6.55758">
        <ele>1243.4000244141</ele>
        <time>2017-04-30T07:15:11.000Z</time>
      </trkpt>
      <trkpt lat="46.84284" lon="6.55741">
        <ele>1243.5999755859</ele>
        <time>2017-04-30T07:15:16.000Z</time>
      </trkpt>
      <trkpt lat="46.84268" lon="6.55725">
        <ele>1242.5999755859</ele>
        <time>2017-04-30T07:15:20.000Z</time>
      </trkpt>
      <trkpt lat="46.84264" lon="6.55722">
        <ele>1242.5999755859</ele>
        <time>2017-04-30T07:15:21.000Z</time>
      </trkpt>
      <trkpt lat="46.84254" lon="6.55704">
        <ele>1242.5999755859</ele>
        <time>2017-04-30T07:15:25.000Z</time>
      </trkpt>
      <trkpt lat="46.84252" lon="6.55697">
        <ele>1243</ele>
        <time>2017-04-30T07:15:27.000Z</time>
      </trkpt>
      <trkpt lat="46.84251" lon="6.55692">
        <ele>1243.8000488281</ele>
        <time>2017-04-30T07:15:29.000Z</time>
      </trkpt>
      <trkpt lat="46.8425" lon="6.55689">
        <ele>1244.1999511719</ele>
        <time>2017-04-30T07:15:30.000Z</time>
      </trkpt>
      <trkpt lat="46.84249" lon="6.55686">
        <ele>1244.8000488281</ele>
        <time>2017-04-30T07:15:31.000Z</time>
      </trkpt>
      <trkpt lat="46.84247" lon="6.55679">
        <ele>1245.8000488281</ele>
        <time>2017-04-30T07:15:33.000Z</time>
      </trkpt>
      <trkpt lat="46.84244" lon="6.55673">
        <ele>1247</ele>
        <time>2017-04-30T07:15:35.000Z</time>
      </trkpt>
      <trkpt lat="46.84241" lon="6.55661">
        <ele>1248.1999511719</ele>
        <time>2017-04-30T07:15:38.000Z</time>
      </trkpt>
      <trkpt lat="46.84239" lon="6.55655">
        <ele>1249.1999511719</ele>
        <time>2017-04-30T07:15:40.000Z</time>
      </trkpt>
      <trkpt lat="46.84232" lon="6.55652">
        <ele>1249.8000488281</ele>
        <time>2017-04-30T07:15:44.000Z</time>
      </trkpt>
      <trkpt lat="46.84231" lon="6.55654">
        <ele>1249.8000488281</ele>
        <time>2017-04-30T07:15:45.000Z</time>
      </trkpt>
      <trkpt lat="46.84226" lon="6.55657">
        <ele>1249.1999511719</ele>
        <time>2017-04-30T07:15:47.000Z</time>
      </trkpt>
      <trkpt lat="46.84224" lon="6.55657">
        <ele>1248.4000244141</ele>
        <time>2017-04-30T07:15:48.000Z</time>
      </trkpt>
      <trkpt lat="46.84222" lon="6.55657">
        <ele>1247.5999755859</ele>
        <time>2017-04-30T07:15:49.000Z</time>
      </trkpt>
      <trkpt lat="46.84218" lon="6.55659">
        <ele>1246.1999511719</ele>
        <time>2017-04-30T07:15:52.000Z</time>
      </trkpt>
      <trkpt lat="46.84217" lon="6.5566">
        <ele>1245.8000488281</ele>
        <time>2017-04-30T07:15:53.000Z</time>
      </trkpt>
      <trkpt lat="46.84218" lon="6.5566">
        <ele>1244.8000488281</ele>
        <time>2017-04-30T07:15:55.000Z</time>
      </trkpt>
      <trkpt lat="46.84218" lon="6.55658">
        <ele>1243.5999755859</ele>
        <time>2017-04-30T07:15:58.000Z</time>
      </trkpt>
      <trkpt lat="46.84218" lon="6.55658">
        <ele>1243.8000488281</ele>
        <time>2017-04-30T07:16:08.000Z</time>
      </trkpt>
      <trkpt lat="46.84212" lon="6.55659">
        <ele>1242.8000488281</ele>
        <time>2017-04-30T07:16:47.000Z</time>
      </trkpt>
      <trkpt lat="46.84212" lon="6.55659">
        <ele>1242.4000244141</ele>
        <time>2017-04-30T07:16:55.000Z</time>
      </trkpt>
      <trkpt lat="46.84212" lon="6.55659">
        <ele>1242.5999755859</ele>
        <time>2017-04-30T07:16:57.000Z</time>
      </trkpt>
      <trkpt lat="46.84212" lon="6.55659">
        <ele>1242.5999755859</ele>
        <time>2017-04-30T07:16:58.000Z</time>
      </trkpt>
      <trkpt lat="46.84211" lon="6.55657">
        <ele>1242.4000244141</ele>
        <time>2017-04-30T07:17:07.000Z</time>
      </trkpt>
      <trkpt lat="46.84203" lon="6.55665">
        <ele>1242</ele>
        <time>2017-04-30T07:17:12.000Z</time>
      </trkpt>
      <trkpt lat="46.84187" lon="6.55675">
        <ele>1240.5999755859</ele>
        <time>2017-04-30T07:17:15.000Z</time>
      </trkpt>
      <trkpt lat="46.84181" lon="6.55678">
        <ele>1239.5999755859</ele>
        <time>2017-04-30T07:17:16.000Z</time>
      </trkpt>
      <trkpt lat="46.84176" lon="6.55681">
        <ele>1239</ele>
        <time>2017-04-30T07:17:17.000Z</time>
      </trkpt>
      <trkpt lat="46.84171" lon="6.55682">
        <ele>1238</ele>
        <time>2017-04-30T07:17:18.000Z</time>
      </trkpt>
      <trkpt lat="46.84166" lon="6.55683">
        <ele>1237.4000244141</ele>
        <time>2017-04-30T07:17:19.000Z</time>
      </trkpt>
      <trkpt lat="46.84162" lon="6.55685">
        <ele>1236.4000244141</ele>
        <time>2017-04-30T07:17:20.000Z</time>
      </trkpt>
      <trkpt lat="46.84158" lon="6.55686">
        <ele>1235.8000488281</ele>
        <time>2017-04-30T07:17:21.000Z</time>
      </trkpt>
      <trkpt lat="46.84153" lon="6.55688">
        <ele>1234</ele>
        <time>2017-04-30T07:17:23.000Z</time>
      </trkpt>
      <trkpt lat="46.84152" lon="6.55689">
        <ele>1233.1999511719</ele>
        <time>2017-04-30T07:17:24.000Z</time>
      </trkpt>
      <trkpt lat="46.84151" lon="6.5569">
        <ele>1232.8000488281</ele>
        <time>2017-04-30T07:17:25.000Z</time>
      </trkpt>
      <trkpt lat="46.8415" lon="6.55692">
        <ele>1232</ele>
        <time>2017-04-30T07:17:28.000Z</time>
      </trkpt>
      <trkpt lat="46.84149" lon="6.55691">
        <ele>1231.8000488281</ele>
        <time>2017-04-30T07:17:31.000Z</time>
      </trkpt>
      <trkpt lat="46.84149" lon="6.5569">
        <ele>1231.4000244141</ele>
        <time>2017-04-30T07:17:33.000Z</time>
      </trkpt>
      <trkpt lat="46.8415" lon="6.55653">
        <ele>1234.8000488281</ele>
        <time>2017-04-30T07:18:38.000Z</time>
      </trkpt>
      <trkpt lat="46.8415" lon="6.55653">
        <ele>1235.1999511719</ele>
        <time>2017-04-30T07:18:41.000Z</time>
      </trkpt>
      <trkpt lat="46.84149" lon="6.55655">
        <ele>1235.1999511719</ele>
        <time>2017-04-30T07:18:48.000Z</time>
      </trkpt>
      <trkpt lat="46.84148" lon="6.55657">
        <ele>1234.5999755859</ele>
        <time>2017-04-30T07:18:49.000Z</time>
      </trkpt>
      <trkpt lat="46.84137" lon="6.55666">
        <ele>1234</ele>
        <time>2017-04-30T07:18:53.000Z</time>
      </trkpt>
      <trkpt lat="46.84126" lon="6.55674">
        <ele>1232.8000488281</ele>
        <time>2017-04-30T07:18:56.000Z</time>
      </trkpt>
      <trkpt lat="46.84122" lon="6.55674">
        <ele>1232.4000244141</ele>
        <time>2017-04-30T07:18:57.000Z</time>
      </trkpt>
      <trkpt lat="46.84116" lon="6.55675">
        <ele>1232</ele>
        <time>2017-04-30T07:18:58.000Z</time>
      </trkpt>
      <trkpt lat="46.84111" lon="6.55676">
        <ele>1231.8000488281</ele>
        <time>2017-04-30T07:18:59.000Z</time>
      </trkpt>
      <trkpt lat="46.84106" lon="6.55678">
        <ele>1231.4000244141</ele>
        <time>2017-04-30T07:19:00.000Z</time>
      </trkpt>
      <trkpt lat="46.84097" lon="6.55685">
        <ele>1230.8000488281</ele>
        <time>2017-04-30T07:19:02.000Z</time>
      </trkpt>
      <trkpt lat="46.84092" lon="6.55689">
        <ele>1230.5999755859</ele>
        <time>2017-04-30T07:19:03.000Z</time>
      </trkpt>
      <trkpt lat="46.84078" lon="6.557">
        <ele>1229.4000244141</ele>
        <time>2017-04-30T07:19:07.000Z</time>
      </trkpt>
      <trkpt lat="46.84071" lon="6.55705">
        <ele>1229.1999511719</ele>
        <time>2017-04-30T07:19:10.000Z</time>
      </trkpt>
      <trkpt lat="46.8407" lon="6.5571">
        <ele>1229.4000244141</ele>
        <time>2017-04-30T07:19:11.000Z</time>
      </trkpt>
      <trkpt lat="46.84069" lon="6.55729">
        <ele>1229</ele>
        <time>2017-04-30T07:19:15.000Z</time>
      </trkpt>
      <trkpt lat="46.84068" lon="6.5574">
        <ele>1229</ele>
        <time>2017-04-30T07:19:17.000Z</time>
      </trkpt>
      <trkpt lat="46.84068" lon="6.55751">
        <ele>1228.4000244141</ele>
        <time>2017-04-30T07:19:19.000Z</time>
      </trkpt>
      <trkpt lat="46.84069" lon="6.55756">
        <ele>1228.1999511719</ele>
        <time>2017-04-30T07:19:20.000Z</time>
      </trkpt>
      <trkpt lat="46.8407" lon="6.55766">
        <ele>1227.1999511719</ele>
        <time>2017-04-30T07:19:22.000Z</time>
      </trkpt>
      <trkpt lat="46.8407" lon="6.55771">
        <ele>1227</ele>
        <time>2017-04-30T07:19:23.000Z</time>
      </trkpt>
      <trkpt lat="46.84071" lon="6.55794">
        <ele>1226.4000244141</ele>
        <time>2017-04-30T07:19:27.000Z</time>
      </trkpt>
      <trkpt lat="46.84071" lon="6.55804">
        <ele>1225.8000488281</ele>
        <time>2017-04-30T07:19:28.000Z</time>
      </trkpt>
      <trkpt lat="46.84069" lon="6.55812">
        <ele>1225.1999511719</ele>
        <time>2017-04-30T07:19:29.000Z</time>
      </trkpt>
      <trkpt lat="46.84066" lon="6.55819">
        <ele>1224.5999755859</ele>
        <time>2017-04-30T07:19:30.000Z</time>
      </trkpt>
      <trkpt lat="46.8406" lon="6.55829">
        <ele>1223.4000244141</ele>
        <time>2017-04-30T07:19:32.000Z</time>
      </trkpt>
      <trkpt lat="46.84055" lon="6.5584">
        <ele>1221.8000488281</ele>
        <time>2017-04-30T07:19:34.000Z</time>
      </trkpt>
      <trkpt lat="46.84052" lon="6.55858">
        <ele>1219.4000244141</ele>
        <time>2017-04-30T07:19:36.000Z</time>
      </trkpt>
      <trkpt lat="46.84049" lon="6.55866">
        <ele>1218.4000244141</ele>
        <time>2017-04-30T07:19:37.000Z</time>
      </trkpt>
      <trkpt lat="46.84044" lon="6.55874">
        <ele>1217.4000244141</ele>
        <time>2017-04-30T07:19:38.000Z</time>
      </trkpt>
      <trkpt lat="46.84033" lon="6.55886">
        <ele>1216</ele>
        <time>2017-04-30T07:19:40.000Z</time>
      </trkpt>
      <trkpt lat="46.84027" lon="6.55889">
        <ele>1215.5999755859</ele>
        <time>2017-04-30T07:19:41.000Z</time>
      </trkpt>
      <trkpt lat="46.84022" lon="6.55892">
        <ele>1215</ele>
        <time>2017-04-30T07:19:42.000Z</time>
      </trkpt>
      <trkpt lat="46.8402" lon="6.55893">
        <ele>1214</ele>
        <time>2017-04-30T07:19:43.000Z</time>
      </trkpt>
      <trkpt lat="46.84019" lon="6.55893">
        <ele>1213.1999511719</ele>
        <time>2017-04-30T07:19:44.000Z</time>
      </trkpt>
      <trkpt lat="46.84015" lon="6.55896">
        <ele>1212</ele>
        <time>2017-04-30T07:19:48.000Z</time>
      </trkpt>
      <trkpt lat="46.84014" lon="6.55897">
        <ele>1211.8000488281</ele>
        <time>2017-04-30T07:19:49.000Z</time>
      </trkpt>
      <trkpt lat="46.84008" lon="6.55896">
        <ele>1211.8000488281</ele>
        <time>2017-04-30T07:19:51.000Z</time>
      </trkpt>
      <trkpt lat="46.84001" lon="6.55891">
        <ele>1211.8000488281</ele>
        <time>2017-04-30T07:19:53.000Z</time>
      </trkpt>
      <trkpt lat="46.8399" lon="6.55889">
        <ele>1212.5999755859</ele>
        <time>2017-04-30T07:19:56.000Z</time>
      </trkpt>
      <trkpt lat="46.83985" lon="6.55888">
        <ele>1213</ele>
        <time>2017-04-30T07:19:57.000Z</time>
      </trkpt>
      <trkpt lat="46.8398" lon="6.55888">
        <ele>1213.1999511719</ele>
        <time>2017-04-30T07:19:58.000Z</time>
      </trkpt>
      <trkpt lat="46.83965" lon="6.55888">
        <ele>1213.4000244141</ele>
        <time>2017-04-30T07:20:01.000Z</time>
      </trkpt>
      <trkpt lat="46.83941" lon="6.55883">
        <ele>1213.5999755859</ele>
        <time>2017-04-30T07:20:06.000Z</time>
      </trkpt>
      <trkpt lat="46.83931" lon="6.5588">
        <ele>1213.4000244141</ele>
        <time>2017-04-30T07:20:08.000Z</time>
      </trkpt>
      <trkpt lat="46.83917" lon="6.55872">
        <ele>1214.1999511719</ele>
        <time>2017-04-30T07:20:11.000Z</time>
      </trkpt>
      <trkpt lat="46.83902" lon="6.55861">
        <ele>1214.4000244141</ele>
        <time>2017-04-30T07:20:15.000Z</time>
      </trkpt>
      <trkpt lat="46.83896" lon="6.55859">
        <ele>1213.8000488281</ele>
        <time>2017-04-30T07:20:16.000Z</time>
      </trkpt>
      <trkpt lat="46.83872" lon="6.5585">
        <ele>1213</ele>
        <time>2017-04-30T07:20:20.000Z</time>
      </trkpt>
      <trkpt lat="46.83866" lon="6.55848">
        <ele>1212.8000488281</ele>
        <time>2017-04-30T07:20:21.000Z</time>
      </trkpt>
      <trkpt lat="46.8385" lon="6.55841">
        <ele>1212.8000488281</ele>
        <time>2017-04-30T07:20:24.000Z</time>
      </trkpt>
      <trkpt lat="46.83839" lon="6.55837">
        <ele>1212.8000488281</ele>
        <time>2017-04-30T07:20:26.000Z</time>
      </trkpt>
      <trkpt lat="46.83808" lon="6.55825">
        <ele>1212</ele>
        <time>2017-04-30T07:20:31.000Z</time>
      </trkpt>
      <trkpt lat="46.83802" lon="6.55822">
        <ele>1211.5999755859</ele>
        <time>2017-04-30T07:20:32.000Z</time>
      </trkpt>
      <trkpt lat="46.83769" lon="6.55809">
        <ele>1211</ele>
        <time>2017-04-30T07:20:37.000Z</time>
      </trkpt>
      <trkpt lat="46.83752" lon="6.55801">
        <ele>1210.5999755859</ele>
        <time>2017-04-30T07:20:40.000Z</time>
      </trkpt>
      <trkpt lat="46.83735" lon="6.55794">
        <ele>1209.8000488281</ele>
        <time>2017-04-30T07:20:43.000Z</time>
      </trkpt>
      <trkpt lat="46.83696" lon="6.55775">
        <ele>1210.1999511719</ele>
        <time>2017-04-30T07:20:49.000Z</time>
      </trkpt>
      <trkpt lat="46.83663" lon="6.55761">
        <ele>1210.1999511719</ele>
        <time>2017-04-30T07:20:54.000Z</time>
      </trkpt>
      <trkpt lat="46.83652" lon="6.55755">
        <ele>1210.1999511719</ele>
        <time>2017-04-30T07:20:56.000Z</time>
      </trkpt>
      <trkpt lat="46.83644" lon="6.55747">
        <ele>1210</ele>
        <time>2017-04-30T07:20:58.000Z</time>
      </trkpt>
      <trkpt lat="46.83627" lon="6.55722">
        <ele>1209.4000244141</ele>
        <time>2017-04-30T07:21:02.000Z</time>
      </trkpt>
      <trkpt lat="46.83624" lon="6.55694">
        <ele>1208.5999755859</ele>
        <time>2017-04-30T07:21:05.000Z</time>
      </trkpt>
      <trkpt lat="46.83624" lon="6.55685">
        <ele>1208</ele>
        <time>2017-04-30T07:21:06.000Z</time>
      </trkpt>
      <trkpt lat="46.83623" lon="6.55666">
        <ele>1207</ele>
        <time>2017-04-30T07:21:08.000Z</time>
      </trkpt>
      <trkpt lat="46.83624" lon="6.55649">
        <ele>1206.1999511719</ele>
        <time>2017-04-30T07:21:10.000Z</time>
      </trkpt>
      <trkpt lat="46.83625" lon="6.55631">
        <ele>1205.5999755859</ele>
        <time>2017-04-30T07:21:12.000Z</time>
      </trkpt>
      <trkpt lat="46.8362" lon="6.55617">
        <ele>1205.5999755859</ele>
        <time>2017-04-30T07:21:14.000Z</time>
      </trkpt>
      <trkpt lat="46.83606" lon="6.55601">
        <ele>1205</ele>
        <time>2017-04-30T07:21:17.000Z</time>
      </trkpt>
      <trkpt lat="46.83601" lon="6.55595">
        <ele>1204.8000488281</ele>
        <time>2017-04-30T07:21:18.000Z</time>
      </trkpt>
      <trkpt lat="46.83596" lon="6.55589">
        <ele>1204.4000244141</ele>
        <time>2017-04-30T07:21:19.000Z</time>
      </trkpt>
      <trkpt lat="46.83581" lon="6.5557">
        <ele>1203.8000488281</ele>
        <time>2017-04-30T07:21:22.000Z</time>
      </trkpt>
      <trkpt lat="46.83575" lon="6.55565">
        <ele>1203.8000488281</ele>
        <time>2017-04-30T07:21:23.000Z</time>
      </trkpt>
      <trkpt lat="46.83557" lon="6.55548">
        <ele>1203.1999511719</ele>
        <time>2017-04-30T07:21:26.000Z</time>
      </trkpt>
      <trkpt lat="46.83551" lon="6.55543">
        <ele>1202.8000488281</ele>
        <time>2017-04-30T07:21:27.000Z</time>
      </trkpt>
      <trkpt lat="46.83546" lon="6.55538">
        <ele>1202.5999755859</ele>
        <time>2017-04-30T07:21:28.000Z</time>
      </trkpt>
      <trkpt lat="46.83529" lon="6.55526">
        <ele>1202.4000244141</ele>
        <time>2017-04-30T07:21:31.000Z</time>
      </trkpt>
      <trkpt lat="46.83507" lon="6.5551">
        <ele>1203</ele>
        <time>2017-04-30T07:21:35.000Z</time>
      </trkpt>
      <trkpt lat="46.83475" lon="6.55483">
        <ele>1203.5999755859</ele>
        <time>2017-04-30T07:21:41.000Z</time>
      </trkpt>
      <trkpt lat="46.8345" lon="6.55465">
        <ele>1201.8000488281</ele>
        <time>2017-04-30T07:21:45.000Z</time>
      </trkpt>
      <trkpt lat="46.83444" lon="6.55459">
        <ele>1201.4000244141</ele>
        <time>2017-04-30T07:21:46.000Z</time>
      </trkpt>
      <trkpt lat="46.83433" lon="6.55446">
        <ele>1200.5999755859</ele>
        <time>2017-04-30T07:21:48.000Z</time>
      </trkpt>
      <trkpt lat="46.83423" lon="6.55433">
        <ele>1199.8000488281</ele>
        <time>2017-04-30T07:21:50.000Z</time>
      </trkpt>
      <trkpt lat="46.8342" lon="6.55425">
        <ele>1199.5999755859</ele>
        <time>2017-04-30T07:21:51.000Z</time>
      </trkpt>
      <trkpt lat="46.83418" lon="6.55419">
        <ele>1199.4000244141</ele>
        <time>2017-04-30T07:21:52.000Z</time>
      </trkpt>
      <trkpt lat="46.83413" lon="6.55409">
        <ele>1198.8000488281</ele>
        <time>2017-04-30T07:21:54.000Z</time>
      </trkpt>
      <trkpt lat="46.83407" lon="6.5539">
        <ele>1198.5999755859</ele>
        <time>2017-04-30T07:21:57.000Z</time>
      </trkpt>
      <trkpt lat="46.83403" lon="6.55376">
        <ele>1198.8000488281</ele>
        <time>2017-04-30T07:21:59.000Z</time>
      </trkpt>
      <trkpt lat="46.83397" lon="6.55363">
        <ele>1199.1999511719</ele>
        <time>2017-04-30T07:22:01.000Z</time>
      </trkpt>
      <trkpt lat="46.83391" lon="6.55352">
        <ele>1199.8000488281</ele>
        <time>2017-04-30T07:22:03.000Z</time>
      </trkpt>
      <trkpt lat="46.83379" lon="6.55329">
        <ele>1200.4000244141</ele>
        <time>2017-04-30T07:22:07.000Z</time>
      </trkpt>
      <trkpt lat="46.83375" lon="6.5531">
        <ele>1201.1999511719</ele>
        <time>2017-04-30T07:22:10.000Z</time>
      </trkpt>
      <trkpt lat="46.83371" lon="6.55297">
        <ele>1201.4000244141</ele>
        <time>2017-04-30T07:22:12.000Z</time>
      </trkpt>
      <trkpt lat="46.8337" lon="6.5529">
        <ele>1201.4000244141</ele>
        <time>2017-04-30T07:22:13.000Z</time>
      </trkpt>
      <trkpt lat="46.83369" lon="6.55261">
        <ele>1202.1999511719</ele>
        <time>2017-04-30T07:22:17.000Z</time>
      </trkpt>
      <trkpt lat="46.8337" lon="6.55254">
        <ele>1202.5999755859</ele>
        <time>2017-04-30T07:22:18.000Z</time>
      </trkpt>
      <trkpt lat="46.83371" lon="6.55238">
        <ele>1202.8000488281</ele>
        <time>2017-04-30T07:22:20.000Z</time>
      </trkpt>
      <trkpt lat="46.83375" lon="6.55224">
        <ele>1203</ele>
        <time>2017-04-30T07:22:22.000Z</time>
      </trkpt>
      <trkpt lat="46.83374" lon="6.55203">
        <ele>1203.1999511719</ele>
        <time>2017-04-30T07:22:25.000Z</time>
      </trkpt>
      <trkpt lat="46.83373" lon="6.55196">
        <ele>1203.5999755859</ele>
        <time>2017-04-30T07:22:26.000Z</time>
      </trkpt>
      <trkpt lat="46.83371" lon="6.55189">
        <ele>1203.5999755859</ele>
        <time>2017-04-30T07:22:27.000Z</time>
      </trkpt>
      <trkpt lat="46.83365" lon="6.55175">
        <ele>1203.8000488281</ele>
        <time>2017-04-30T07:22:29.000Z</time>
      </trkpt>
      <trkpt lat="46.83356" lon="6.55159">
        <ele>1204.1999511719</ele>
        <time>2017-04-30T07:22:32.000Z</time>
      </trkpt>
      <trkpt lat="46.83349" lon="6.5515">
        <ele>1204.5999755859</ele>
        <time>2017-04-30T07:22:34.000Z</time>
      </trkpt>
      <trkpt lat="46.83343" lon="6.55142">
        <ele>1205.4000244141</ele>
        <time>2017-04-30T07:22:36.000Z</time>
      </trkpt>
      <trkpt lat="46.8334" lon="6.55139">
        <ele>1205.5999755859</ele>
        <time>2017-04-30T07:22:37.000Z</time>
      </trkpt>
      <trkpt lat="46.83336" lon="6.55136">
        <ele>1205.8000488281</ele>
        <time>2017-04-30T07:22:38.000Z</time>
      </trkpt>
      <trkpt lat="46.83332" lon="6.55132">
        <ele>1205.8000488281</ele>
        <time>2017-04-30T07:22:39.000Z</time>
      </trkpt>
      <trkpt lat="46.83316" lon="6.55113">
        <ele>1206.4000244141</ele>
        <time>2017-04-30T07:22:43.000Z</time>
      </trkpt>
      <trkpt lat="46.83289" lon="6.55082">
        <ele>1206</ele>
        <time>2017-04-30T07:22:49.000Z</time>
      </trkpt>
      <trkpt lat="46.83259" lon="6.55051">
        <ele>1206.4000244141</ele>
        <time>2017-04-30T07:22:55.000Z</time>
      </trkpt>
      <trkpt lat="46.83237" lon="6.55042">
        <ele>1206</ele>
        <time>2017-04-30T07:22:59.000Z</time>
      </trkpt>
      <trkpt lat="46.83227" lon="6.55034">
        <ele>1206</ele>
        <time>2017-04-30T07:23:01.000Z</time>
      </trkpt>
      <trkpt lat="46.83216" lon="6.55024">
        <ele>1205.8000488281</ele>
        <time>2017-04-30T07:23:03.000Z</time>
      </trkpt>
      <trkpt lat="46.83198" lon="6.55">
        <ele>1204.8000488281</ele>
        <time>2017-04-30T07:23:07.000Z</time>
      </trkpt>
      <trkpt lat="46.83194" lon="6.54994">
        <ele>1204.4000244141</ele>
        <time>2017-04-30T07:23:08.000Z</time>
      </trkpt>
      <trkpt lat="46.8319" lon="6.54987">
        <ele>1204</ele>
        <time>2017-04-30T07:23:09.000Z</time>
      </trkpt>
      <trkpt lat="46.83188" lon="6.5498">
        <ele>1203.8000488281</ele>
        <time>2017-04-30T07:23:10.000Z</time>
      </trkpt>
      <trkpt lat="46.83184" lon="6.54965">
        <ele>1203.5999755859</ele>
        <time>2017-04-30T07:23:12.000Z</time>
      </trkpt>
      <trkpt lat="46.83183" lon="6.54957">
        <ele>1203.5999755859</ele>
        <time>2017-04-30T07:23:13.000Z</time>
      </trkpt>
      <trkpt lat="46.83179" lon="6.54942">
        <ele>1203.5999755859</ele>
        <time>2017-04-30T07:23:15.000Z</time>
      </trkpt>
      <trkpt lat="46.83176" lon="6.54936">
        <ele>1203.5999755859</ele>
        <time>2017-04-30T07:23:16.000Z</time>
      </trkpt>
      <trkpt lat="46.83172" lon="6.5493">
        <ele>1203.4000244141</ele>
        <time>2017-04-30T07:23:17.000Z</time>
      </trkpt>
      <trkpt lat="46.83157" lon="6.54914">
        <ele>1202.5999755859</ele>
        <time>2017-04-30T07:23:20.000Z</time>
      </trkpt>
      <trkpt lat="46.83142" lon="6.54898">
        <ele>1203</ele>
        <time>2017-04-30T07:23:23.000Z</time>
      </trkpt>
      <trkpt lat="46.8313" lon="6.54878">
        <ele>1203.1999511719</ele>
        <time>2017-04-30T07:23:26.000Z</time>
      </trkpt>
      <trkpt lat="46.83125" lon="6.54862">
        <ele>1203.1999511719</ele>
        <time>2017-04-30T07:23:28.000Z</time>
      </trkpt>
      <trkpt lat="46.83121" lon="6.54845">
        <ele>1203</ele>
        <time>2017-04-30T07:23:30.000Z</time>
      </trkpt>
      <trkpt lat="46.8312" lon="6.54837">
        <ele>1203</ele>
        <time>2017-04-30T07:23:31.000Z</time>
      </trkpt>
      <trkpt lat="46.83115" lon="6.54803">
        <ele>1203.1999511719</ele>
        <time>2017-04-30T07:23:35.000Z</time>
      </trkpt>
      <trkpt lat="46.83115" lon="6.54794">
        <ele>1203.1999511719</ele>
        <time>2017-04-30T07:23:36.000Z</time>
      </trkpt>
      <trkpt lat="46.83118" lon="6.54766">
        <ele>1203.4000244141</ele>
        <time>2017-04-30T07:23:40.000Z</time>
      </trkpt>
      <trkpt lat="46.83115" lon="6.54753">
        <ele>1203.8000488281</ele>
        <time>2017-04-30T07:23:42.000Z</time>
      </trkpt>
      <trkpt lat="46.83109" lon="6.5474">
        <ele>1204.4000244141</ele>
        <time>2017-04-30T07:23:44.000Z</time>
      </trkpt>
      <trkpt lat="46.83096" lon="6.54703">
        <ele>1204.8000488281</ele>
        <time>2017-04-30T07:23:49.000Z</time>
      </trkpt>
      <trkpt lat="46.83094" lon="6.54697">
        <ele>1204.8000488281</ele>
        <time>2017-04-30T07:23:50.000Z</time>
      </trkpt>
      <trkpt lat="46.83092" lon="6.54691">
        <ele>1205</ele>
        <time>2017-04-30T07:23:51.000Z</time>
      </trkpt>
      <trkpt lat="46.83086" lon="6.54673">
        <ele>1205.5999755859</ele>
        <time>2017-04-30T07:23:54.000Z</time>
      </trkpt>
      <trkpt lat="46.83079" lon="6.54634">
        <ele>1204.8000488281</ele>
        <time>2017-04-30T07:23:59.000Z</time>
      </trkpt>
      <trkpt lat="46.83071" lon="6.54598">
        <ele>1204.4000244141</ele>
        <time>2017-04-30T07:24:03.000Z</time>
      </trkpt>
      <trkpt lat="46.83063" lon="6.54566">
        <ele>1203.8000488281</ele>
        <time>2017-04-30T07:24:06.000Z</time>
      </trkpt>
      <trkpt lat="46.83054" lon="6.54537">
        <ele>1203.4000244141</ele>
        <time>2017-04-30T07:24:09.000Z</time>
      </trkpt>
      <trkpt lat="46.83035" lon="6.54481">
        <ele>1203.8000488281</ele>
        <time>2017-04-30T07:24:15.000Z</time>
      </trkpt>
      <trkpt lat="46.83021" lon="6.54432">
        <ele>1203.5999755859</ele>
        <time>2017-04-30T07:24:20.000Z</time>
      </trkpt>
      <trkpt lat="46.83013" lon="6.54396">
        <ele>1203.8000488281</ele>
        <time>2017-04-30T07:24:24.000Z</time>
      </trkpt>
      <trkpt lat="46.83001" lon="6.54354">
        <ele>1203.4000244141</ele>
        <time>2017-04-30T07:24:29.000Z</time>
      </trkpt>
      <trkpt lat="46.82994" lon="6.54322">
        <ele>1202.1999511719</ele>
        <time>2017-04-30T07:24:33.000Z</time>
      </trkpt>
      <trkpt lat="46.82991" lon="6.54316">
        <ele>1202</ele>
        <time>2017-04-30T07:24:34.000Z</time>
      </trkpt>
      <trkpt lat="46.82989" lon="6.54309">
        <ele>1201.5999755859</ele>
        <time>2017-04-30T07:24:35.000Z</time>
      </trkpt>
      <trkpt lat="46.82987" lon="6.54295">
        <ele>1201</ele>
        <time>2017-04-30T07:24:37.000Z</time>
      </trkpt>
      <trkpt lat="46.82987" lon="6.54287">
        <ele>1200.8000488281</ele>
        <time>2017-04-30T07:24:38.000Z</time>
      </trkpt>
      <trkpt lat="46.82985" lon="6.54272">
        <ele>1200.1999511719</ele>
        <time>2017-04-30T07:24:40.000Z</time>
      </trkpt>
      <trkpt lat="46.82986" lon="6.54263">
        <ele>1199.5999755859</ele>
        <time>2017-04-30T07:24:41.000Z</time>
      </trkpt>
      <trkpt lat="46.82987" lon="6.54254">
        <ele>1198.8000488281</ele>
        <time>2017-04-30T07:24:42.000Z</time>
      </trkpt>
      <trkpt lat="46.8299" lon="6.54245">
        <ele>1198.4000244141</ele>
        <time>2017-04-30T07:24:43.000Z</time>
      </trkpt>
      <trkpt lat="46.82993" lon="6.54237">
        <ele>1197.1999511719</ele>
        <time>2017-04-30T07:24:44.000Z</time>
      </trkpt>
      <trkpt lat="46.82996" lon="6.5423">
        <ele>1196.1999511719</ele>
        <time>2017-04-30T07:24:45.000Z</time>
      </trkpt>
      <trkpt lat="46.82999" lon="6.54225">
        <ele>1195.5999755859</ele>
        <time>2017-04-30T07:24:46.000Z</time>
      </trkpt>
      <trkpt lat="46.83002" lon="6.54219">
        <ele>1196</ele>
        <time>2017-04-30T07:24:47.000Z</time>
      </trkpt>
      <trkpt lat="46.83005" lon="6.54215">
        <ele>1196.5999755859</ele>
        <time>2017-04-30T07:24:48.000Z</time>
      </trkpt>
      <trkpt lat="46.83008" lon="6.5421">
        <ele>1197.1999511719</ele>
        <time>2017-04-30T07:24:49.000Z</time>
      </trkpt>
      <trkpt lat="46.83013" lon="6.54201">
        <ele>1198</ele>
        <time>2017-04-30T07:24:51.000Z</time>
      </trkpt>
      <trkpt lat="46.83014" lon="6.54194">
        <ele>1198.4000244141</ele>
        <time>2017-04-30T07:24:52.000Z</time>
      </trkpt>
      <trkpt lat="46.83014" lon="6.54173">
        <ele>1198.5999755859</ele>
        <time>2017-04-30T07:24:55.000Z</time>
      </trkpt>
      <trkpt lat="46.83009" lon="6.54146">
        <ele>1198</ele>
        <time>2017-04-30T07:24:58.000Z</time>
      </trkpt>
      <trkpt lat="46.83007" lon="6.54135">
        <ele>1197.8000488281</ele>
        <time>2017-04-30T07:24:59.000Z</time>
      </trkpt>
      <trkpt lat="46.83005" lon="6.54125">
        <ele>1197.8000488281</ele>
        <time>2017-04-30T07:25:00.000Z</time>
      </trkpt>
      <trkpt lat="46.83" lon="6.54107">
        <ele>1197.5999755859</ele>
        <time>2017-04-30T07:25:02.000Z</time>
      </trkpt>
      <trkpt lat="46.82997" lon="6.54099">
        <ele>1197.5999755859</ele>
        <time>2017-04-30T07:25:03.000Z</time>
      </trkpt>
      <trkpt lat="46.82993" lon="6.54091">
        <ele>1197.1999511719</ele>
        <time>2017-04-30T07:25:04.000Z</time>
      </trkpt>
      <trkpt lat="46.82984" lon="6.54068">
        <ele>1196.4000244141</ele>
        <time>2017-04-30T07:25:07.000Z</time>
      </trkpt>
      <trkpt lat="46.82981" lon="6.5406">
        <ele>1196.1999511719</ele>
        <time>2017-04-30T07:25:08.000Z</time>
      </trkpt>
      <trkpt lat="46.8297" lon="6.54025">
        <ele>1195.1999511719</ele>
        <time>2017-04-30T07:25:12.000Z</time>
      </trkpt>
      <trkpt lat="46.82967" lon="6.54016">
        <ele>1195</ele>
        <time>2017-04-30T07:25:13.000Z</time>
      </trkpt>
      <trkpt lat="46.82958" lon="6.53987">
        <ele>1193.8000488281</ele>
        <time>2017-04-30T07:25:16.000Z</time>
      </trkpt>
      <trkpt lat="46.82948" lon="6.5396">
        <ele>1193.4000244141</ele>
        <time>2017-04-30T07:25:19.000Z</time>
      </trkpt>
      <trkpt lat="46.82936" lon="6.53919">
        <ele>1193.4000244141</ele>
        <time>2017-04-30T07:25:24.000Z</time>
      </trkpt>
      <trkpt lat="46.82925" lon="6.53873">
        <ele>1193.5999755859</ele>
        <time>2017-04-30T07:25:29.000Z</time>
      </trkpt>
      <trkpt lat="46.82912" lon="6.53833">
        <ele>1194</ele>
        <time>2017-04-30T07:25:34.000Z</time>
      </trkpt>
      <trkpt lat="46.82911" lon="6.53827">
        <ele>1194</ele>
        <time>2017-04-30T07:25:35.000Z</time>
      </trkpt>
      <trkpt lat="46.82915" lon="6.53821">
        <ele>1194</ele>
        <time>2017-04-30T07:25:37.000Z</time>
      </trkpt>
      <trkpt lat="46.8292" lon="6.53828">
        <ele>1194</ele>
        <time>2017-04-30T07:25:40.000Z</time>
      </trkpt>
      <trkpt lat="46.82918" lon="6.53843">
        <ele>1194</ele>
        <time>2017-04-30T07:25:43.000Z</time>
      </trkpt>
      <trkpt lat="46.82921" lon="6.53859">
        <ele>1194</ele>
        <time>2017-04-30T07:25:47.000Z</time>
      </trkpt>
      <trkpt lat="46.82946" lon="6.5393">
        <ele>1193.4000244141</ele>
        <time>2017-04-30T07:26:38.000Z</time>
      </trkpt>
      <trkpt lat="46.8295" lon="6.53938">
        <ele>1193.1999511719</ele>
        <time>2017-04-30T07:26:40.000Z</time>
      </trkpt>
      <trkpt lat="46.82954" lon="6.5395">
        <ele>1193.4000244141</ele>
        <time>2017-04-30T07:26:43.000Z</time>
      </trkpt>
      <trkpt lat="46.82964" lon="6.53975">
        <ele>1194.4000244141</ele>
        <time>2017-04-30T07:26:49.000Z</time>
      </trkpt>
      <trkpt lat="46.82972" lon="6.54005">
        <ele>1195</ele>
        <time>2017-04-30T07:26:54.000Z</time>
      </trkpt>
      <trkpt lat="46.82976" lon="6.54016">
        <ele>1195.1999511719</ele>
        <time>2017-04-30T07:26:56.000Z</time>
      </trkpt>
      <trkpt lat="46.82977" lon="6.54023">
        <ele>1195.4000244141</ele>
        <time>2017-04-30T07:26:57.000Z</time>
      </trkpt>
      <trkpt lat="46.82981" lon="6.5404">
        <ele>1195.5999755859</ele>
        <time>2017-04-30T07:27:00.000Z</time>
      </trkpt>
      <trkpt lat="46.82993" lon="6.54072">
        <ele>1195.8000488281</ele>
        <time>2017-04-30T07:27:06.000Z</time>
      </trkpt>
      <trkpt lat="46.82996" lon="6.54082">
        <ele>1196.4000244141</ele>
        <time>2017-04-30T07:27:08.000Z</time>
      </trkpt>
      <trkpt lat="46.83003" lon="6.54101">
        <ele>1197</ele>
        <time>2017-04-30T07:27:12.000Z</time>
      </trkpt>
      <trkpt lat="46.83008" lon="6.54116">
        <ele>1197.8000488281</ele>
        <time>2017-04-30T07:27:15.000Z</time>
      </trkpt>
      <trkpt lat="46.8301" lon="6.54127">
        <ele>1198</ele>
        <time>2017-04-30T07:27:17.000Z</time>
      </trkpt>
      <trkpt lat="46.83018" lon="6.54154">
        <ele>1198.5999755859</ele>
        <time>2017-04-30T07:27:22.000Z</time>
      </trkpt>
      <trkpt lat="46.8302" lon="6.54159">
        <ele>1198.8000488281</ele>
        <time>2017-04-30T07:27:23.000Z</time>
      </trkpt>
      <trkpt lat="46.83035" lon="6.54192">
        <ele>1200</ele>
        <time>2017-04-30T07:27:29.000Z</time>
      </trkpt>
      <trkpt lat="46.83051" lon="6.54219">
        <ele>1201.1999511719</ele>
        <time>2017-04-30T07:27:34.000Z</time>
      </trkpt>
      <trkpt lat="46.83054" lon="6.54224">
        <ele>1201.4000244141</ele>
        <time>2017-04-30T07:27:35.000Z</time>
      </trkpt>
      <trkpt lat="46.83066" lon="6.54242">
        <ele>1202.4000244141</ele>
        <time>2017-04-30T07:27:39.000Z</time>
      </trkpt>
      <trkpt lat="46.8307" lon="6.54246">
        <ele>1202.8000488281</ele>
        <time>2017-04-30T07:27:40.000Z</time>
      </trkpt>
      <trkpt lat="46.83076" lon="6.54253">
        <ele>1203.8000488281</ele>
        <time>2017-04-30T07:27:42.000Z</time>
      </trkpt>
      <trkpt lat="46.83082" lon="6.54259">
        <ele>1204.4000244141</ele>
        <time>2017-04-30T07:27:44.000Z</time>
      </trkpt>
      <trkpt lat="46.83088" lon="6.54266">
        <ele>1205</ele>
        <time>2017-04-30T07:27:46.000Z</time>
      </trkpt>
      <trkpt lat="46.83098" lon="6.54276">
        <ele>1206.1999511719</ele>
        <time>2017-04-30T07:27:49.000Z</time>
      </trkpt>
      <trkpt lat="46.83107" lon="6.54286">
        <ele>1207.1999511719</ele>
        <time>2017-04-30T07:27:52.000Z</time>
      </trkpt>
      <trkpt lat="46.83113" lon="6.54293">
        <ele>1207.5999755859</ele>
        <time>2017-04-30T07:27:54.000Z</time>
      </trkpt>
      <trkpt lat="46.83119" lon="6.54301">
        <ele>1208.1999511719</ele>
        <time>2017-04-30T07:27:56.000Z</time>
      </trkpt>
      <trkpt lat="46.83132" lon="6.54311">
        <ele>1209.1999511719</ele>
        <time>2017-04-30T07:28:00.000Z</time>
      </trkpt>
      <trkpt lat="46.83135" lon="6.54313">
        <ele>1209.5999755859</ele>
        <time>2017-04-30T07:28:01.000Z</time>
      </trkpt>
      <trkpt lat="46.83145" lon="6.54318">
        <ele>1210.8000488281</ele>
        <time>2017-04-30T07:28:04.000Z</time>
      </trkpt>
      <trkpt lat="46.83148" lon="6.54319">
        <ele>1211</ele>
        <time>2017-04-30T07:28:05.000Z</time>
      </trkpt>
      <trkpt lat="46.83157" lon="6.54323">
        <ele>1212</ele>
        <time>2017-04-30T07:28:08.000Z</time>
      </trkpt>
      <trkpt lat="46.83167" lon="6.54327">
        <ele>1213.4000244141</ele>
        <time>2017-04-30T07:28:11.000Z</time>
      </trkpt>
      <trkpt lat="46.8318" lon="6.54332">
        <ele>1214.5999755859</ele>
        <time>2017-04-30T07:28:15.000Z</time>
      </trkpt>
      <trkpt lat="46.8319" lon="6.54337">
        <ele>1215.8000488281</ele>
        <time>2017-04-30T07:28:18.000Z</time>
      </trkpt>
      <trkpt lat="46.83193" lon="6.54338">
        <ele>1216.4000244141</ele>
        <time>2017-04-30T07:28:19.000Z</time>
      </trkpt>
      <trkpt lat="46.83199" lon="6.54342">
        <ele>1217.1999511719</ele>
        <time>2017-04-30T07:28:21.000Z</time>
      </trkpt>
      <trkpt lat="46.83206" lon="6.54345">
        <ele>1217.8000488281</ele>
        <time>2017-04-30T07:28:23.000Z</time>
      </trkpt>
      <trkpt lat="46.83209" lon="6.54346">
        <ele>1218.4000244141</ele>
        <time>2017-04-30T07:28:24.000Z</time>
      </trkpt>
      <trkpt lat="46.83223" lon="6.54351">
        <ele>1219.8000488281</ele>
        <time>2017-04-30T07:28:28.000Z</time>
      </trkpt>
      <trkpt lat="46.83226" lon="6.54352">
        <ele>1220.4000244141</ele>
        <time>2017-04-30T07:28:29.000Z</time>
      </trkpt>
      <trkpt lat="46.83233" lon="6.54357">
        <ele>1221</ele>
        <time>2017-04-30T07:28:31.000Z</time>
      </trkpt>
      <trkpt lat="46.83246" lon="6.54363">
        <ele>1222.4000244141</ele>
        <time>2017-04-30T07:28:35.000Z</time>
      </trkpt>
      <trkpt lat="46.83258" lon="6.54368">
        <ele>1223.5999755859</ele>
        <time>2017-04-30T07:28:39.000Z</time>
      </trkpt>
      <trkpt lat="46.83264" lon="6.54374">
        <ele>1224.4000244141</ele>
        <time>2017-04-30T07:28:41.000Z</time>
      </trkpt>
      <trkpt lat="46.8327" lon="6.54382">
        <ele>1223.1999511719</ele>
        <time>2017-04-30T07:28:43.000Z</time>
      </trkpt>
      <trkpt lat="46.83279" lon="6.54393">
        <ele>1225.8000488281</ele>
        <time>2017-04-30T07:28:46.000Z</time>
      </trkpt>
      <trkpt lat="46.83283" lon="6.54394">
        <ele>1226.1999511719</ele>
        <time>2017-04-30T07:28:47.000Z</time>
      </trkpt>
      <trkpt lat="46.83288" lon="6.5439">
        <ele>1227.4000244141</ele>
        <time>2017-04-30T07:28:50.000Z</time>
      </trkpt>
      <trkpt lat="46.83289" lon="6.54386">
        <ele>1228.5999755859</ele>
        <time>2017-04-30T07:28:52.000Z</time>
      </trkpt>
      <trkpt lat="46.83288" lon="6.54381">
        <ele>1229.5999755859</ele>
        <time>2017-04-30T07:28:54.000Z</time>
      </trkpt>
      <trkpt lat="46.83286" lon="6.54375">
        <ele>1230.8000488281</ele>
        <time>2017-04-30T07:28:57.000Z</time>
      </trkpt>
      <trkpt lat="46.83284" lon="6.5437">
        <ele>1231.4000244141</ele>
        <time>2017-04-30T07:28:59.000Z</time>
      </trkpt>
      <trkpt lat="46.83284" lon="6.54366">
        <ele>1231.8000488281</ele>
        <time>2017-04-30T07:29:00.000Z</time>
      </trkpt>
      <trkpt lat="46.83281" lon="6.54354">
        <ele>1232.8000488281</ele>
        <time>2017-04-30T07:29:03.000Z</time>
      </trkpt>
      <trkpt lat="46.83281" lon="6.54351">
        <ele>1233</ele>
        <time>2017-04-30T07:29:04.000Z</time>
      </trkpt>
      <trkpt lat="46.83281" lon="6.54332">
        <ele>1233.5999755859</ele>
        <time>2017-04-30T07:29:09.000Z</time>
      </trkpt>
      <trkpt lat="46.8328" lon="6.54328">
        <ele>1233.8000488281</ele>
        <time>2017-04-30T07:29:10.000Z</time>
      </trkpt>
      <trkpt lat="46.83279" lon="6.54318">
        <ele>1234.4000244141</ele>
        <time>2017-04-30T07:29:13.000Z</time>
      </trkpt>
      <trkpt lat="46.83278" lon="6.5431">
        <ele>1234.8000488281</ele>
        <time>2017-04-30T07:29:15.000Z</time>
      </trkpt>
      <trkpt lat="46.83276" lon="6.543">
        <ele>1235.5999755859</ele>
        <time>2017-04-30T07:29:18.000Z</time>
      </trkpt>
      <trkpt lat="46.83276" lon="6.54298">
        <ele>1236.1999511719</ele>
        <time>2017-04-30T07:29:19.000Z</time>
      </trkpt>
      <trkpt lat="46.83275" lon="6.54287">
        <ele>1237.1999511719</ele>
        <time>2017-04-30T07:29:22.000Z</time>
      </trkpt>
      <trkpt lat="46.83276" lon="6.54279">
        <ele>1237.5999755859</ele>
        <time>2017-04-30T07:29:24.000Z</time>
      </trkpt>
      <trkpt lat="46.83278" lon="6.54268">
        <ele>1238.4000244141</ele>
        <time>2017-04-30T07:29:27.000Z</time>
      </trkpt>
      <trkpt lat="46.8328" lon="6.54262">
        <ele>1239</ele>
        <time>2017-04-30T07:29:29.000Z</time>
      </trkpt>
      <trkpt lat="46.83282" lon="6.54259">
        <ele>1239.4000244141</ele>
        <time>2017-04-30T07:29:30.000Z</time>
      </trkpt>
      <trkpt lat="46.83289" lon="6.54252">
        <ele>1240.8000488281</ele>
        <time>2017-04-30T07:29:33.000Z</time>
      </trkpt>
      <trkpt lat="46.83294" lon="6.54255">
        <ele>1241.5999755859</ele>
        <time>2017-04-30T07:29:36.000Z</time>
      </trkpt>
      <trkpt lat="46.83296" lon="6.54258">
        <ele>1242</ele>
        <time>2017-04-30T07:29:37.000Z</time>
      </trkpt>
      <trkpt lat="46.83301" lon="6.54264">
        <ele>1242.8000488281</ele>
        <time>2017-04-30T07:29:39.000Z</time>
      </trkpt>
      <trkpt lat="46.83306" lon="6.54269">
        <ele>1243.1999511719</ele>
        <time>2017-04-30T07:29:41.000Z</time>
      </trkpt>
      <trkpt lat="46.8331" lon="6.54273">
        <ele>1243.8000488281</ele>
        <time>2017-04-30T07:29:43.000Z</time>
      </trkpt>
      <trkpt lat="46.83319" lon="6.54282">
        <ele>1245</ele>
        <time>2017-04-30T07:29:47.000Z</time>
      </trkpt>
      <trkpt lat="46.83331" lon="6.54291">
        <ele>1245.8000488281</ele>
        <time>2017-04-30T07:29:52.000Z</time>
      </trkpt>
      <trkpt lat="46.83333" lon="6.54292">
        <ele>1246</ele>
        <time>2017-04-30T07:29:53.000Z</time>
      </trkpt>
      <trkpt lat="46.83342" lon="6.54296">
        <ele>1246.5999755859</ele>
        <time>2017-04-30T07:29:56.000Z</time>
      </trkpt>
      <trkpt lat="46.83344" lon="6.54297">
        <ele>1246.8000488281</ele>
        <time>2017-04-30T07:29:57.000Z</time>
      </trkpt>
      <trkpt lat="46.8335" lon="6.54301">
        <ele>1247.8000488281</ele>
        <time>2017-04-30T07:30:00.000Z</time>
      </trkpt>
      <trkpt lat="46.83355" lon="6.54307">
        <ele>1248.5999755859</ele>
        <time>2017-04-30T07:30:02.000Z</time>
      </trkpt>
      <trkpt lat="46.83357" lon="6.54309">
        <ele>1249</ele>
        <time>2017-04-30T07:30:03.000Z</time>
      </trkpt>
      <trkpt lat="46.83367" lon="6.54317">
        <ele>1249.8000488281</ele>
        <time>2017-04-30T07:30:07.000Z</time>
      </trkpt>
      <trkpt lat="46.83369" lon="6.54319">
        <ele>1250.1999511719</ele>
        <time>2017-04-30T07:30:08.000Z</time>
      </trkpt>
      <trkpt lat="46.83383" lon="6.54332">
        <ele>1251.1999511719</ele>
        <time>2017-04-30T07:30:13.000Z</time>
      </trkpt>
      <trkpt lat="46.83398" lon="6.54352">
        <ele>1252.1999511719</ele>
        <time>2017-04-30T07:30:18.000Z</time>
      </trkpt>
      <trkpt lat="46.83401" lon="6.54355">
        <ele>1252.5999755859</ele>
        <time>2017-04-30T07:30:19.000Z</time>
      </trkpt>
      <trkpt lat="46.83409" lon="6.54367">
        <ele>1253.1999511719</ele>
        <time>2017-04-30T07:30:22.000Z</time>
      </trkpt>
      <trkpt lat="46.83419" lon="6.5438">
        <ele>1253.8000488281</ele>
        <time>2017-04-30T07:30:26.000Z</time>
      </trkpt>
      <trkpt lat="46.8343" lon="6.54395">
        <ele>1254.1999511719</ele>
        <time>2017-04-30T07:30:30.000Z</time>
      </trkpt>
      <trkpt lat="46.83441" lon="6.54402">
        <ele>1255</ele>
        <time>2017-04-30T07:30:34.000Z</time>
      </trkpt>
      <trkpt lat="46.83443" lon="6.54402">
        <ele>1255.5999755859</ele>
        <time>2017-04-30T07:30:35.000Z</time>
      </trkpt>
      <trkpt lat="46.83446" lon="6.544">
        <ele>1256.8000488281</ele>
        <time>2017-04-30T07:30:39.000Z</time>
      </trkpt>
      <trkpt lat="46.83443" lon="6.54392">
        <ele>1258</ele>
        <time>2017-04-30T07:30:42.000Z</time>
      </trkpt>
      <trkpt lat="46.8344" lon="6.54387">
        <ele>1258.5999755859</ele>
        <time>2017-04-30T07:30:44.000Z</time>
      </trkpt>
      <trkpt lat="46.83437" lon="6.54381">
        <ele>1259.1999511719</ele>
        <time>2017-04-30T07:30:46.000Z</time>
      </trkpt>
      <trkpt lat="46.83435" lon="6.54376">
        <ele>1259.8000488281</ele>
        <time>2017-04-30T07:30:48.000Z</time>
      </trkpt>
      <trkpt lat="46.83432" lon="6.54372">
        <ele>1260.5999755859</ele>
        <time>2017-04-30T07:30:50.000Z</time>
      </trkpt>
      <trkpt lat="46.8343" lon="6.54364">
        <ele>1261.4000244141</ele>
        <time>2017-04-30T07:30:52.000Z</time>
      </trkpt>
      <trkpt lat="46.83427" lon="6.54357">
        <ele>1262</ele>
        <time>2017-04-30T07:30:54.000Z</time>
      </trkpt>
      <trkpt lat="46.83423" lon="6.5435">
        <ele>1262.5999755859</ele>
        <time>2017-04-30T07:30:56.000Z</time>
      </trkpt>
      <trkpt lat="46.83419" lon="6.54338">
        <ele>1263.8000488281</ele>
        <time>2017-04-30T07:30:59.000Z</time>
      </trkpt>
      <trkpt lat="46.83415" lon="6.54325">
        <ele>1265.1999511719</ele>
        <time>2017-04-30T07:31:02.000Z</time>
      </trkpt>
      <trkpt lat="46.83413" lon="6.54315">
        <ele>1265.8000488281</ele>
        <time>2017-04-30T07:31:04.000Z</time>
      </trkpt>
      <trkpt lat="46.83412" lon="6.54305">
        <ele>1266.4000244141</ele>
        <time>2017-04-30T07:31:06.000Z</time>
      </trkpt>
      <trkpt lat="46.83409" lon="6.5429">
        <ele>1267.4000244141</ele>
        <time>2017-04-30T07:31:09.000Z</time>
      </trkpt>
      <trkpt lat="46.83405" lon="6.5427">
        <ele>1268.5999755859</ele>
        <time>2017-04-30T07:31:13.000Z</time>
      </trkpt>
      <trkpt lat="46.83404" lon="6.54259">
        <ele>1269.1999511719</ele>
        <time>2017-04-30T07:31:15.000Z</time>
      </trkpt>
      <trkpt lat="46.83401" lon="6.5425">
        <ele>1269.8000488281</ele>
        <time>2017-04-30T07:31:17.000Z</time>
      </trkpt>
      <trkpt lat="46.83398" lon="6.54241">
        <ele>1270.4000244141</ele>
        <time>2017-04-30T07:31:19.000Z</time>
      </trkpt>
      <trkpt lat="46.83395" lon="6.54232">
        <ele>1271</ele>
        <time>2017-04-30T07:31:21.000Z</time>
      </trkpt>
      <trkpt lat="46.83392" lon="6.54219">
        <ele>1272.1999511719</ele>
        <time>2017-04-30T07:31:24.000Z</time>
      </trkpt>
      <trkpt lat="46.8339" lon="6.54205">
        <ele>1273.1999511719</ele>
        <time>2017-04-30T07:31:27.000Z</time>
      </trkpt>
      <trkpt lat="46.83387" lon="6.54192">
        <ele>1274</ele>
        <time>2017-04-30T07:31:30.000Z</time>
      </trkpt>
      <trkpt lat="46.83387" lon="6.54188">
        <ele>1274.4000244141</ele>
        <time>2017-04-30T07:31:31.000Z</time>
      </trkpt>
      <trkpt lat="46.83387" lon="6.54173">
        <ele>1275.5999755859</ele>
        <time>2017-04-30T07:31:34.000Z</time>
      </trkpt>
      <trkpt lat="46.83389" lon="6.54168">
        <ele>1276</ele>
        <time>2017-04-30T07:31:35.000Z</time>
      </trkpt>
      <trkpt lat="46.83395" lon="6.54155">
        <ele>1277</ele>
        <time>2017-04-30T07:31:38.000Z</time>
      </trkpt>
      <trkpt lat="46.83396" lon="6.54152">
        <ele>1277.5999755859</ele>
        <time>2017-04-30T07:31:39.000Z</time>
      </trkpt>
      <trkpt lat="46.83399" lon="6.54144">
        <ele>1278.1999511719</ele>
        <time>2017-04-30T07:31:41.000Z</time>
      </trkpt>
      <trkpt lat="46.83402" lon="6.54138">
        <ele>1278.5999755859</ele>
        <time>2017-04-30T07:31:43.000Z</time>
      </trkpt>
      <trkpt lat="46.83403" lon="6.54133">
        <ele>1279.4000244141</ele>
        <time>2017-04-30T07:31:45.000Z</time>
      </trkpt>
      <trkpt lat="46.83402" lon="6.5413">
        <ele>1279.8000488281</ele>
        <time>2017-04-30T07:31:46.000Z</time>
      </trkpt>
      <trkpt lat="46.83401" lon="6.54128">
        <ele>1280.1999511719</ele>
        <time>2017-04-30T07:31:47.000Z</time>
      </trkpt>
      <trkpt lat="46.83401" lon="6.54125">
        <ele>1280.4000244141</ele>
        <time>2017-04-30T07:31:48.000Z</time>
      </trkpt>
      <trkpt lat="46.83397" lon="6.54119">
        <ele>1281.5999755859</ele>
        <time>2017-04-30T07:31:51.000Z</time>
      </trkpt>
      <trkpt lat="46.83392" lon="6.54111">
        <ele>1282.8000488281</ele>
        <time>2017-04-30T07:31:55.000Z</time>
      </trkpt>
      <trkpt lat="46.83391" lon="6.54109">
        <ele>1283.1999511719</ele>
        <time>2017-04-30T07:31:56.000Z</time>
      </trkpt>
      <trkpt lat="46.83391" lon="6.54104">
        <ele>1283.1999511719</ele>
        <time>2017-04-30T07:31:58.000Z</time>
      </trkpt>
      <trkpt lat="46.83393" lon="6.5409">
        <ele>1284</ele>
        <time>2017-04-30T07:32:02.000Z</time>
      </trkpt>
      <trkpt lat="46.83391" lon="6.54083">
        <ele>1284.4000244141</ele>
        <time>2017-04-30T07:32:04.000Z</time>
      </trkpt>
      <trkpt lat="46.83389" lon="6.54075">
        <ele>1284.8000488281</ele>
        <time>2017-04-30T07:32:06.000Z</time>
      </trkpt>
      <trkpt lat="46.83389" lon="6.54072">
        <ele>1285</ele>
        <time>2017-04-30T07:32:07.000Z</time>
      </trkpt>
      <trkpt lat="46.83389" lon="6.54059">
        <ele>1285.4000244141</ele>
        <time>2017-04-30T07:32:10.000Z</time>
      </trkpt>
      <trkpt lat="46.83389" lon="6.5405">
        <ele>1286</ele>
        <time>2017-04-30T07:32:12.000Z</time>
      </trkpt>
      <trkpt lat="46.83391" lon="6.54039">
        <ele>1286.5999755859</ele>
        <time>2017-04-30T07:32:14.000Z</time>
      </trkpt>
      <trkpt lat="46.8339" lon="6.54017">
        <ele>1287.1999511719</ele>
        <time>2017-04-30T07:32:18.000Z</time>
      </trkpt>
      <trkpt lat="46.83389" lon="6.54005">
        <ele>1287.8000488281</ele>
        <time>2017-04-30T07:32:20.000Z</time>
      </trkpt>
      <trkpt lat="46.83385" lon="6.53983">
        <ele>1288.1999511719</ele>
        <time>2017-04-30T07:32:24.000Z</time>
      </trkpt>
      <trkpt lat="46.83382" lon="6.53975">
        <ele>1288.8000488281</ele>
        <time>2017-04-30T07:32:26.000Z</time>
      </trkpt>
      <trkpt lat="46.83378" lon="6.53966">
        <ele>1290</ele>
        <time>2017-04-30T07:32:29.000Z</time>
      </trkpt>
      <trkpt lat="46.83377" lon="6.53962">
        <ele>1290.4000244141</ele>
        <time>2017-04-30T07:32:30.000Z</time>
      </trkpt>
      <trkpt lat="46.83374" lon="6.53958">
        <ele>1291.4000244141</ele>
        <time>2017-04-30T07:32:32.000Z</time>
      </trkpt>
      <trkpt lat="46.8337" lon="6.5395">
        <ele>1292.8000488281</ele>
        <time>2017-04-30T07:32:35.000Z</time>
      </trkpt>
      <trkpt lat="46.83363" lon="6.53938">
        <ele>1293.8000488281</ele>
        <time>2017-04-30T07:32:39.000Z</time>
      </trkpt>
      <trkpt lat="46.83348" lon="6.53917">
        <ele>1295</ele>
        <time>2017-04-30T07:32:45.000Z</time>
      </trkpt>
      <trkpt lat="46.83335" lon="6.53891">
        <ele>1295.8000488281</ele>
        <time>2017-04-30T07:32:50.000Z</time>
      </trkpt>
      <trkpt lat="46.83332" lon="6.53887">
        <ele>1296</ele>
        <time>2017-04-30T07:32:51.000Z</time>
      </trkpt>
      <trkpt lat="46.83328" lon="6.53882">
        <ele>1295.8000488281</ele>
        <time>2017-04-30T07:32:52.000Z</time>
      </trkpt>
      <trkpt lat="46.83313" lon="6.53863">
        <ele>1295.5999755859</ele>
        <time>2017-04-30T07:32:56.000Z</time>
      </trkpt>
      <trkpt lat="46.8331" lon="6.53858">
        <ele>1295.4000244141</ele>
        <time>2017-04-30T07:32:57.000Z</time>
      </trkpt>
      <trkpt lat="46.83306" lon="6.53853">
        <ele>1295.4000244141</ele>
        <time>2017-04-30T07:32:58.000Z</time>
      </trkpt>
      <trkpt lat="46.83296" lon="6.53835">
        <ele>1295.4000244141</ele>
        <time>2017-04-30T07:33:01.000Z</time>
      </trkpt>
      <trkpt lat="46.83293" lon="6.5383">
        <ele>1295.1999511719</ele>
        <time>2017-04-30T07:33:02.000Z</time>
      </trkpt>
      <trkpt lat="46.83282" lon="6.53815">
        <ele>1295</ele>
        <time>2017-04-30T07:33:05.000Z</time>
      </trkpt>
      <trkpt lat="46.83269" lon="6.53798">
        <ele>1295.5999755859</ele>
        <time>2017-04-30T07:33:09.000Z</time>
      </trkpt>
      <trkpt lat="46.83264" lon="6.5379">
        <ele>1296.1999511719</ele>
        <time>2017-04-30T07:33:11.000Z</time>
      </trkpt>
      <trkpt lat="46.83256" lon="6.53776">
        <ele>1297.1999511719</ele>
        <time>2017-04-30T07:33:14.000Z</time>
      </trkpt>
      <trkpt lat="46.83255" lon="6.53771">
        <ele>1297.4000244141</ele>
        <time>2017-04-30T07:33:15.000Z</time>
      </trkpt>
      <trkpt lat="46.83254" lon="6.53764">
        <ele>1297.5999755859</ele>
        <time>2017-04-30T07:33:16.000Z</time>
      </trkpt>
      <trkpt lat="46.83253" lon="6.53749">
        <ele>1297.8000488281</ele>
        <time>2017-04-30T07:33:18.000Z</time>
      </trkpt>
      <trkpt lat="46.83254" lon="6.53727">
        <ele>1298</ele>
        <time>2017-04-30T07:33:21.000Z</time>
      </trkpt>
      <trkpt lat="46.83264" lon="6.537">
        <ele>1298.5999755859</ele>
        <time>2017-04-30T07:33:25.000Z</time>
      </trkpt>
      <trkpt lat="46.83268" lon="6.53676">
        <ele>1299</ele>
        <time>2017-04-30T07:33:29.000Z</time>
      </trkpt>
      <trkpt lat="46.83263" lon="6.53654">
        <ele>1299.8000488281</ele>
        <time>2017-04-30T07:33:33.000Z</time>
      </trkpt>
      <trkpt lat="46.83261" lon="6.53649">
        <ele>1300</ele>
        <time>2017-04-30T07:33:34.000Z</time>
      </trkpt>
      <trkpt lat="46.83252" lon="6.5363">
        <ele>1301</ele>
        <time>2017-04-30T07:33:38.000Z</time>
      </trkpt>
      <trkpt lat="46.83249" lon="6.53624">
        <ele>1301</ele>
        <time>2017-04-30T07:33:39.000Z</time>
      </trkpt>
      <trkpt lat="46.83248" lon="6.53617">
        <ele>1301.1999511719</ele>
        <time>2017-04-30T07:33:40.000Z</time>
      </trkpt>
      <trkpt lat="46.83243" lon="6.53604">
        <ele>1301.1999511719</ele>
        <time>2017-04-30T07:33:42.000Z</time>
      </trkpt>
      <trkpt lat="46.8324" lon="6.53598">
        <ele>1301.1999511719</ele>
        <time>2017-04-30T07:33:43.000Z</time>
      </trkpt>
      <trkpt lat="46.83236" lon="6.53593">
        <ele>1301.1999511719</ele>
        <time>2017-04-30T07:33:44.000Z</time>
      </trkpt>
      <trkpt lat="46.83225" lon="6.5358">
        <ele>1301.4000244141</ele>
        <time>2017-04-30T07:33:47.000Z</time>
      </trkpt>
      <trkpt lat="46.83218" lon="6.53572">
        <ele>1302</ele>
        <time>2017-04-30T07:33:49.000Z</time>
      </trkpt>
      <trkpt lat="46.83212" lon="6.53556">
        <ele>1302.4000244141</ele>
        <time>2017-04-30T07:33:52.000Z</time>
      </trkpt>
      <trkpt lat="46.83209" lon="6.53541">
        <ele>1303.1999511719</ele>
        <time>2017-04-30T07:33:55.000Z</time>
      </trkpt>
      <trkpt lat="46.83208" lon="6.53536">
        <ele>1303.4000244141</ele>
        <time>2017-04-30T07:33:56.000Z</time>
      </trkpt>
      <trkpt lat="46.83205" lon="6.53521">
        <ele>1304.5999755859</ele>
        <time>2017-04-30T07:34:00.000Z</time>
      </trkpt>
      <trkpt lat="46.83202" lon="6.53514">
        <ele>1305.1999511719</ele>
        <time>2017-04-30T07:34:02.000Z</time>
      </trkpt>
      <trkpt lat="46.832" lon="6.53511">
        <ele>1305.5999755859</ele>
        <time>2017-04-30T07:34:03.000Z</time>
      </trkpt>
      <trkpt lat="46.83192" lon="6.53497">
        <ele>1306.8000488281</ele>
        <time>2017-04-30T07:34:07.000Z</time>
      </trkpt>
      <trkpt lat="46.83191" lon="6.53479">
        <ele>1308</ele>
        <time>2017-04-30T07:34:11.000Z</time>
      </trkpt>
      <trkpt lat="46.8319" lon="6.53477">
        <ele>1308.4000244141</ele>
        <time>2017-04-30T07:34:12.000Z</time>
      </trkpt>
      <trkpt lat="46.83189" lon="6.53469">
        <ele>1309.1999511719</ele>
        <time>2017-04-30T07:34:14.000Z</time>
      </trkpt>
      <trkpt lat="46.83187" lon="6.53458">
        <ele>1310.4000244141</ele>
        <time>2017-04-30T07:34:17.000Z</time>
      </trkpt>
      <trkpt lat="46.83186" lon="6.53452">
        <ele>1311.5999755859</ele>
        <time>2017-04-30T07:34:19.000Z</time>
      </trkpt>
      <trkpt lat="46.83185" lon="6.53446">
        <ele>1312.8000488281</ele>
        <time>2017-04-30T07:34:21.000Z</time>
      </trkpt>
      <trkpt lat="46.83186" lon="6.53443">
        <ele>1313.1999511719</ele>
        <time>2017-04-30T07:34:22.000Z</time>
      </trkpt>
      <trkpt lat="46.83187" lon="6.53439">
        <ele>1313.5999755859</ele>
        <time>2017-04-30T07:34:23.000Z</time>
      </trkpt>
      <trkpt lat="46.83187" lon="6.53435">
        <ele>1313.8000488281</ele>
        <time>2017-04-30T07:34:24.000Z</time>
      </trkpt>
      <trkpt lat="46.8319" lon="6.53424">
        <ele>1315</ele>
        <time>2017-04-30T07:34:27.000Z</time>
      </trkpt>
      <trkpt lat="46.8319" lon="6.5342">
        <ele>1315.1999511719</ele>
        <time>2017-04-30T07:34:28.000Z</time>
      </trkpt>
      <trkpt lat="46.83186" lon="6.53404">
        <ele>1316</ele>
        <time>2017-04-30T07:34:31.000Z</time>
      </trkpt>
      <trkpt lat="46.83185" lon="6.53398">
        <ele>1316.1999511719</ele>
        <time>2017-04-30T07:34:32.000Z</time>
      </trkpt>
      <trkpt lat="46.83185" lon="6.5338">
        <ele>1316.5999755859</ele>
        <time>2017-04-30T07:34:35.000Z</time>
      </trkpt>
      <trkpt lat="46.83185" lon="6.53363">
        <ele>1316.5999755859</ele>
        <time>2017-04-30T07:34:39.000Z</time>
      </trkpt>
      <trkpt lat="46.83184" lon="6.53339">
        <ele>1316.4000244141</ele>
        <time>2017-04-30T07:34:43.000Z</time>
      </trkpt>
      <trkpt lat="46.83184" lon="6.53325">
        <ele>1315.8000488281</ele>
        <time>2017-04-30T07:34:45.000Z</time>
      </trkpt>
      <trkpt lat="46.83184" lon="6.5331">
        <ele>1315.5999755859</ele>
        <time>2017-04-30T07:34:48.000Z</time>
      </trkpt>
      <trkpt lat="46.83187" lon="6.53293">
        <ele>1315.8000488281</ele>
        <time>2017-04-30T07:34:52.000Z</time>
      </trkpt>
      <trkpt lat="46.83194" lon="6.53273">
        <ele>1317.1999511719</ele>
        <time>2017-04-30T07:34:56.000Z</time>
      </trkpt>
      <trkpt lat="46.83196" lon="6.53269">
        <ele>1317.5999755859</ele>
        <time>2017-04-30T07:34:57.000Z</time>
      </trkpt>
      <trkpt lat="46.83197" lon="6.53263">
        <ele>1318.5999755859</ele>
        <time>2017-04-30T07:34:59.000Z</time>
      </trkpt>
      <trkpt lat="46.83197" lon="6.53262">
        <ele>1319</ele>
        <time>2017-04-30T07:35:00.000Z</time>
      </trkpt>
      <trkpt lat="46.83199" lon="6.5326">
        <ele>1319.8000488281</ele>
        <time>2017-04-30T07:35:04.000Z</time>
      </trkpt>
      <trkpt lat="46.83201" lon="6.53256">
        <ele>1320.1999511719</ele>
        <time>2017-04-30T07:35:10.000Z</time>
      </trkpt>
      <trkpt lat="46.83201" lon="6.53256">
        <ele>1320.1999511719</ele>
        <time>2017-04-30T07:35:11.000Z</time>
      </trkpt>
      <trkpt lat="46.83201" lon="6.53247">
        <ele>1318</ele>
        <time>2017-04-30T07:36:31.000Z</time>
      </trkpt>
      <trkpt lat="46.83202" lon="6.53246">
        <ele>1318.1999511719</ele>
        <time>2017-04-30T07:36:38.000Z</time>
      </trkpt>
      <trkpt lat="46.83202" lon="6.53245">
        <ele>1318.5999755859</ele>
        <time>2017-04-30T07:36:46.000Z</time>
      </trkpt>
      <trkpt lat="46.83199" lon="6.53247">
        <ele>1318.1999511719</ele>
        <time>2017-04-30T07:36:52.000Z</time>
      </trkpt>
      <trkpt lat="46.83196" lon="6.53256">
        <ele>1317</ele>
        <time>2017-04-30T07:36:56.000Z</time>
      </trkpt>
      <trkpt lat="46.83196" lon="6.53259">
        <ele>1315.5999755859</ele>
        <time>2017-04-30T07:36:58.000Z</time>
      </trkpt>
      <trkpt lat="46.83196" lon="6.5326">
        <ele>1315</ele>
        <time>2017-04-30T07:37:00.000Z</time>
      </trkpt>
      <trkpt lat="46.83199" lon="6.53256">
        <ele>1314.8000488281</ele>
        <time>2017-04-30T07:37:07.000Z</time>
      </trkpt>
      <trkpt lat="46.83199" lon="6.53255">
        <ele>1314.8000488281</ele>
        <time>2017-04-30T07:37:18.000Z</time>
      </trkpt>
      <trkpt lat="46.83195" lon="6.53258">
        <ele>1314.8000488281</ele>
        <time>2017-04-30T07:37:27.000Z</time>
      </trkpt>
      <trkpt lat="46.83192" lon="6.53259">
        <ele>1314.5999755859</ele>
        <time>2017-04-30T07:37:34.000Z</time>
      </trkpt>
      <trkpt lat="46.83191" lon="6.53259">
        <ele>1314.5999755859</ele>
        <time>2017-04-30T07:37:36.000Z</time>
      </trkpt>
      <trkpt lat="46.83189" lon="6.5326">
        <ele>1314</ele>
        <time>2017-04-30T07:37:40.000Z</time>
      </trkpt>
      <trkpt lat="46.83185" lon="6.53264">
        <ele>1313.4000244141</ele>
        <time>2017-04-30T07:37:45.000Z</time>
      </trkpt>
      <trkpt lat="46.83184" lon="6.53265">
        <ele>1312.8000488281</ele>
        <time>2017-04-30T07:37:49.000Z</time>
      </trkpt>
      <trkpt lat="46.83184" lon="6.53266">
        <ele>1312.4000244141</ele>
        <time>2017-04-30T07:37:53.000Z</time>
      </trkpt>
      <trkpt lat="46.83184" lon="6.53264">
        <ele>1312.4000244141</ele>
        <time>2017-04-30T07:37:58.000Z</time>
      </trkpt>
      <trkpt lat="46.83184" lon="6.53264">
        <ele>1313</ele>
        <time>2017-04-30T07:38:06.000Z</time>
      </trkpt>
      <trkpt lat="46.83184" lon="6.53264">
        <ele>1313.4000244141</ele>
        <time>2017-04-30T07:38:16.000Z</time>
      </trkpt>
      <trkpt lat="46.83184" lon="6.53264">
        <ele>1313.4000244141</ele>
        <time>2017-04-30T07:38:17.000Z</time>
      </trkpt>
      <trkpt lat="46.83183" lon="6.53265">
        <ele>1312.8000488281</ele>
        <time>2017-04-30T07:38:26.000Z</time>
      </trkpt>
      <trkpt lat="46.83182" lon="6.53266">
        <ele>1312.8000488281</ele>
        <time>2017-04-30T07:38:32.000Z</time>
      </trkpt>
      <trkpt lat="46.83183" lon="6.53268">
        <ele>1313.4000244141</ele>
        <time>2017-04-30T07:38:45.000Z</time>
      </trkpt>
      <trkpt lat="46.83182" lon="6.53269">
        <ele>1312.1999511719</ele>
        <time>2017-04-30T07:38:54.000Z</time>
      </trkpt>
      <trkpt lat="46.83182" lon="6.5327">
        <ele>1312.1999511719</ele>
        <time>2017-04-30T07:39:01.000Z</time>
      </trkpt>
      <trkpt lat="46.83181" lon="6.53274">
        <ele>1312</ele>
        <time>2017-04-30T07:39:04.000Z</time>
      </trkpt>
      <trkpt lat="46.83177" lon="6.53279">
        <ele>1311.1999511719</ele>
        <time>2017-04-30T07:39:07.000Z</time>
      </trkpt>
      <trkpt lat="46.83174" lon="6.53279">
        <ele>1310</ele>
        <time>2017-04-30T07:39:11.000Z</time>
      </trkpt>
      <trkpt lat="46.83173" lon="6.53278">
        <ele>1310</ele>
        <time>2017-04-30T07:39:12.000Z</time>
      </trkpt>
      <trkpt lat="46.83168" lon="6.53276">
        <ele>1309.1999511719</ele>
        <time>2017-04-30T07:39:16.000Z</time>
      </trkpt>
      <trkpt lat="46.83166" lon="6.53276">
        <ele>1309</ele>
        <time>2017-04-30T07:39:17.000Z</time>
      </trkpt>
      <trkpt lat="46.83165" lon="6.53276">
        <ele>1308.5999755859</ele>
        <time>2017-04-30T07:39:18.000Z</time>
      </trkpt>
      <trkpt lat="46.83164" lon="6.53276">
        <ele>1307.5999755859</ele>
        <time>2017-04-30T07:39:20.000Z</time>
      </trkpt>
      <trkpt lat="46.83164" lon="6.53276">
        <ele>1307.1999511719</ele>
        <time>2017-04-30T07:39:21.000Z</time>
      </trkpt>
      <trkpt lat="46.83151" lon="6.53273">
        <ele>1307.4000244141</ele>
        <time>2017-04-30T07:49:35.000Z</time>
      </trkpt>
      <trkpt lat="46.83155" lon="6.53277">
        <ele>1307</ele>
        <time>2017-04-30T07:49:43.000Z</time>
      </trkpt>
      <trkpt lat="46.83153" lon="6.53276">
        <ele>1306.4000244141</ele>
        <time>2017-04-30T07:49:47.000Z</time>
      </trkpt>
      <trkpt lat="46.83151" lon="6.53279">
        <ele>1305.8000488281</ele>
        <time>2017-04-30T07:49:50.000Z</time>
      </trkpt>
      <trkpt lat="46.8315" lon="6.5328">
        <ele>1305.4000244141</ele>
        <time>2017-04-30T07:49:51.000Z</time>
      </trkpt>
      <trkpt lat="46.83146" lon="6.53286">
        <ele>1304.1999511719</ele>
        <time>2017-04-30T07:49:54.000Z</time>
      </trkpt>
      <trkpt lat="46.83146" lon="6.53289">
        <ele>1304</ele>
        <time>2017-04-30T07:49:55.000Z</time>
      </trkpt>
      <trkpt lat="46.83142" lon="6.53296">
        <ele>1303.1999511719</ele>
        <time>2017-04-30T07:49:58.000Z</time>
      </trkpt>
      <trkpt lat="46.83139" lon="6.53297">
        <ele>1303</ele>
        <time>2017-04-30T07:49:59.000Z</time>
      </trkpt>
      <trkpt lat="46.83135" lon="6.53298">
        <ele>1302</ele>
        <time>2017-04-30T07:50:01.000Z</time>
      </trkpt>
      <trkpt lat="46.83132" lon="6.53299">
        <ele>1300.8000488281</ele>
        <time>2017-04-30T07:50:03.000Z</time>
      </trkpt>
      <trkpt lat="46.83132" lon="6.53299">
        <ele>1300.4000244141</ele>
        <time>2017-04-30T07:50:04.000Z</time>
      </trkpt>
      <trkpt lat="46.83131" lon="6.53302">
        <ele>1299.5999755859</ele>
        <time>2017-04-30T07:50:06.000Z</time>
      </trkpt>
      <trkpt lat="46.8313" lon="6.53303">
        <ele>1299.4000244141</ele>
        <time>2017-04-30T07:50:07.000Z</time>
      </trkpt>
      <trkpt lat="46.83129" lon="6.53306">
        <ele>1298.5999755859</ele>
        <time>2017-04-30T07:50:09.000Z</time>
      </trkpt>
      <trkpt lat="46.83126" lon="6.53312">
        <ele>1298</ele>
        <time>2017-04-30T07:50:12.000Z</time>
      </trkpt>
      <trkpt lat="46.83126" lon="6.53323">
        <ele>1298</ele>
        <time>2017-04-30T07:50:16.000Z</time>
      </trkpt>
      <trkpt lat="46.8313" lon="6.53337">
        <ele>1299.4000244141</ele>
        <time>2017-04-30T07:50:21.000Z</time>
      </trkpt>
      <trkpt lat="46.83131" lon="6.53341">
        <ele>1299.5999755859</ele>
        <time>2017-04-30T07:50:22.000Z</time>
      </trkpt>
      <trkpt lat="46.83133" lon="6.53347">
        <ele>1300.1999511719</ele>
        <time>2017-04-30T07:50:24.000Z</time>
      </trkpt>
      <trkpt lat="46.83134" lon="6.53351">
        <ele>1300.8000488281</ele>
        <time>2017-04-30T07:50:25.000Z</time>
      </trkpt>
      <trkpt lat="46.83136" lon="6.53356">
        <ele>1301</ele>
        <time>2017-04-30T07:50:26.000Z</time>
      </trkpt>
      <trkpt lat="46.83138" lon="6.53363">
        <ele>1301.8000488281</ele>
        <time>2017-04-30T07:50:28.000Z</time>
      </trkpt>
      <trkpt lat="46.8314" lon="6.53366">
        <ele>1302</ele>
        <time>2017-04-30T07:50:30.000Z</time>
      </trkpt>
      <trkpt lat="46.83144" lon="6.53383">
        <ele>1302.5999755859</ele>
        <time>2017-04-30T07:50:34.000Z</time>
      </trkpt>
      <trkpt lat="46.83145" lon="6.53387">
        <ele>1302.8000488281</ele>
        <time>2017-04-30T07:50:35.000Z</time>
      </trkpt>
      <trkpt lat="46.83151" lon="6.53403">
        <ele>1303</ele>
        <time>2017-04-30T07:50:39.000Z</time>
      </trkpt>
      <trkpt lat="46.83162" lon="6.53419">
        <ele>1302.8000488281</ele>
        <time>2017-04-30T07:50:44.000Z</time>
      </trkpt>
      <trkpt lat="46.83164" lon="6.53425">
        <ele>1302.5999755859</ele>
        <time>2017-04-30T07:50:45.000Z</time>
      </trkpt>
      <trkpt lat="46.83174" lon="6.53449">
        <ele>1301.8000488281</ele>
        <time>2017-04-30T07:50:49.000Z</time>
      </trkpt>
      <trkpt lat="46.83187" lon="6.53471">
        <ele>1302</ele>
        <time>2017-04-30T07:50:54.000Z</time>
      </trkpt>
      <trkpt lat="46.83198" lon="6.53492">
        <ele>1302.5999755859</ele>
        <time>2017-04-30T07:50:59.000Z</time>
      </trkpt>
      <trkpt lat="46.83204" lon="6.53505">
        <ele>1302.5999755859</ele>
        <time>2017-04-30T07:51:02.000Z</time>
      </trkpt>
      <trkpt lat="46.83206" lon="6.53506">
        <ele>1302.5999755859</ele>
        <time>2017-04-30T07:51:03.000Z</time>
      </trkpt>
      <trkpt lat="46.8321" lon="6.5351">
        <ele>1302.5999755859</ele>
        <time>2017-04-30T07:51:05.000Z</time>
      </trkpt>
      <trkpt lat="46.83212" lon="6.5352">
        <ele>1302.8000488281</ele>
        <time>2017-04-30T07:51:07.000Z</time>
      </trkpt>
      <trkpt lat="46.83208" lon="6.53544">
        <ele>1302.5999755859</ele>
        <time>2017-04-30T07:51:11.000Z</time>
      </trkpt>
      <trkpt lat="46.83207" lon="6.53546">
        <ele>1302</ele>
        <time>2017-04-30T07:51:12.000Z</time>
      </trkpt>
      <trkpt lat="46.83206" lon="6.53554">
        <ele>1301.1999511719</ele>
        <time>2017-04-30T07:51:13.000Z</time>
      </trkpt>
      <trkpt lat="46.83204" lon="6.53559">
        <ele>1300.1999511719</ele>
        <time>2017-04-30T07:51:14.000Z</time>
      </trkpt>
      <trkpt lat="46.83202" lon="6.53564">
        <ele>1299.1999511719</ele>
        <time>2017-04-30T07:51:15.000Z</time>
      </trkpt>
      <trkpt lat="46.83197" lon="6.53575">
        <ele>1297.5999755859</ele>
        <time>2017-04-30T07:51:17.000Z</time>
      </trkpt>
      <trkpt lat="46.83194" lon="6.53579">
        <ele>1296.4000244141</ele>
        <time>2017-04-30T07:51:18.000Z</time>
      </trkpt>
      <trkpt lat="46.83189" lon="6.53583">
        <ele>1294.5999755859</ele>
        <time>2017-04-30T07:51:20.000Z</time>
      </trkpt>
      <trkpt lat="46.83184" lon="6.53588">
        <ele>1292.8000488281</ele>
        <time>2017-04-30T07:51:22.000Z</time>
      </trkpt>
      <trkpt lat="46.83181" lon="6.53591">
        <ele>1292.1999511719</ele>
        <time>2017-04-30T07:51:23.000Z</time>
      </trkpt>
      <trkpt lat="46.83178" lon="6.53594">
        <ele>1291</ele>
        <time>2017-04-30T07:51:24.000Z</time>
      </trkpt>
      <trkpt lat="46.83174" lon="6.53596">
        <ele>1290</ele>
        <time>2017-04-30T07:51:25.000Z</time>
      </trkpt>
      <trkpt lat="46.83168" lon="6.53598">
        <ele>1287.8000488281</ele>
        <time>2017-04-30T07:51:27.000Z</time>
      </trkpt>
      <trkpt lat="46.83165" lon="6.53597">
        <ele>1286.4000244141</ele>
        <time>2017-04-30T07:51:28.000Z</time>
      </trkpt>
      <trkpt lat="46.83157" lon="6.53597">
        <ele>1285</ele>
        <time>2017-04-30T07:51:30.000Z</time>
      </trkpt>
      <trkpt lat="46.83151" lon="6.53596">
        <ele>1283.8000488281</ele>
        <time>2017-04-30T07:51:31.000Z</time>
      </trkpt>
      <trkpt lat="46.83136" lon="6.5359">
        <ele>1281.5999755859</ele>
        <time>2017-04-30T07:51:33.000Z</time>
      </trkpt>
      <trkpt lat="46.83128" lon="6.53586">
        <ele>1280.8000488281</ele>
        <time>2017-04-30T07:51:34.000Z</time>
      </trkpt>
      <trkpt lat="46.83125" lon="6.5358">
        <ele>1280</ele>
        <time>2017-04-30T07:51:35.000Z</time>
      </trkpt>
      <trkpt lat="46.83122" lon="6.53575">
        <ele>1279.8000488281</ele>
        <time>2017-04-30T07:51:36.000Z</time>
      </trkpt>
      <trkpt lat="46.83117" lon="6.53567">
        <ele>1279.4000244141</ele>
        <time>2017-04-30T07:51:38.000Z</time>
      </trkpt>
      <trkpt lat="46.83109" lon="6.53555">
        <ele>1279.1999511719</ele>
        <time>2017-04-30T07:51:41.000Z</time>
      </trkpt>
      <trkpt lat="46.83106" lon="6.53551">
        <ele>1279</ele>
        <time>2017-04-30T07:51:42.000Z</time>
      </trkpt>
      <trkpt lat="46.83102" lon="6.53539">
        <ele>1279.1999511719</ele>
        <time>2017-04-30T07:51:45.000Z</time>
      </trkpt>
      <trkpt lat="46.83093" lon="6.53523">
        <ele>1280.1999511719</ele>
        <time>2017-04-30T07:51:49.000Z</time>
      </trkpt>
      <trkpt lat="46.83091" lon="6.53519">
        <ele>1280.4000244141</ele>
        <time>2017-04-30T07:51:50.000Z</time>
      </trkpt>
      <trkpt lat="46.83084" lon="6.53505">
        <ele>1280.5999755859</ele>
        <time>2017-04-30T07:51:53.000Z</time>
      </trkpt>
      <trkpt lat="46.83081" lon="6.535">
        <ele>1280.5999755859</ele>
        <time>2017-04-30T07:51:54.000Z</time>
      </trkpt>
      <trkpt lat="46.83071" lon="6.53474">
        <ele>1279.8000488281</ele>
        <time>2017-04-30T07:51:58.000Z</time>
      </trkpt>
      <trkpt lat="46.8307" lon="6.53467">
        <ele>1279.8000488281</ele>
        <time>2017-04-30T07:51:59.000Z</time>
      </trkpt>
      <trkpt lat="46.83065" lon="6.53454">
        <ele>1279.1999511719</ele>
        <time>2017-04-30T07:52:01.000Z</time>
      </trkpt>
      <trkpt lat="46.83058" lon="6.53445">
        <ele>1278.5999755859</ele>
        <time>2017-04-30T07:52:03.000Z</time>
      </trkpt>
      <trkpt lat="46.83054" lon="6.53433">
        <ele>1277.8000488281</ele>
        <time>2017-04-30T07:52:05.000Z</time>
      </trkpt>
      <trkpt lat="46.83052" lon="6.53426">
        <ele>1277.5999755859</ele>
        <time>2017-04-30T07:52:06.000Z</time>
      </trkpt>
      <trkpt lat="46.83047" lon="6.53414">
        <ele>1277.1999511719</ele>
        <time>2017-04-30T07:52:08.000Z</time>
      </trkpt>
      <trkpt lat="46.83044" lon="6.53408">
        <ele>1276.5999755859</ele>
        <time>2017-04-30T07:52:09.000Z</time>
      </trkpt>
      <trkpt lat="46.83041" lon="6.53398">
        <ele>1276</ele>
        <time>2017-04-30T07:52:11.000Z</time>
      </trkpt>
      <trkpt lat="46.8304" lon="6.53394">
        <ele>1275</ele>
        <time>2017-04-30T07:52:12.000Z</time>
      </trkpt>
      <trkpt lat="46.83038" lon="6.53389">
        <ele>1273</ele>
        <time>2017-04-30T07:52:14.000Z</time>
      </trkpt>
      <trkpt lat="46.83032" lon="6.53383">
        <ele>1271.5999755859</ele>
        <time>2017-04-30T07:52:16.000Z</time>
      </trkpt>
      <trkpt lat="46.83027" lon="6.53378">
        <ele>1270.4000244141</ele>
        <time>2017-04-30T07:52:17.000Z</time>
      </trkpt>
      <trkpt lat="46.83023" lon="6.53373">
        <ele>1269</ele>
        <time>2017-04-30T07:52:18.000Z</time>
      </trkpt>
      <trkpt lat="46.8302" lon="6.53368">
        <ele>1267.5999755859</ele>
        <time>2017-04-30T07:52:19.000Z</time>
      </trkpt>
      <trkpt lat="46.83018" lon="6.53362">
        <ele>1266.4000244141</ele>
        <time>2017-04-30T07:52:20.000Z</time>
      </trkpt>
      <trkpt lat="46.83013" lon="6.53356">
        <ele>1265.4000244141</ele>
        <time>2017-04-30T07:52:21.000Z</time>
      </trkpt>
      <trkpt lat="46.8301" lon="6.53352">
        <ele>1264.1999511719</ele>
        <time>2017-04-30T07:52:22.000Z</time>
      </trkpt>
      <trkpt lat="46.83009" lon="6.53346">
        <ele>1263.1999511719</ele>
        <time>2017-04-30T07:52:23.000Z</time>
      </trkpt>
      <trkpt lat="46.83006" lon="6.53343">
        <ele>1262.5999755859</ele>
        <time>2017-04-30T07:52:24.000Z</time>
      </trkpt>
      <trkpt lat="46.83002" lon="6.53339">
        <ele>1262</ele>
        <time>2017-04-30T07:52:25.000Z</time>
      </trkpt>
      <trkpt lat="46.82998" lon="6.53332">
        <ele>1260.5999755859</ele>
        <time>2017-04-30T07:52:26.000Z</time>
      </trkpt>
      <trkpt lat="46.82992" lon="6.53327">
        <ele>1259.1999511719</ele>
        <time>2017-04-30T07:52:27.000Z</time>
      </trkpt>
      <trkpt lat="46.82986" lon="6.53318">
        <ele>1258.4000244141</ele>
        <time>2017-04-30T07:52:28.000Z</time>
      </trkpt>
      <trkpt lat="46.82982" lon="6.5331">
        <ele>1257.1999511719</ele>
        <time>2017-04-30T07:52:29.000Z</time>
      </trkpt>
      <trkpt lat="46.82978" lon="6.53302">
        <ele>1256</ele>
        <time>2017-04-30T07:52:30.000Z</time>
      </trkpt>
      <trkpt lat="46.82973" lon="6.53294">
        <ele>1254.8000488281</ele>
        <time>2017-04-30T07:52:31.000Z</time>
      </trkpt>
      <trkpt lat="46.82969" lon="6.53285">
        <ele>1254.1999511719</ele>
        <time>2017-04-30T07:52:32.000Z</time>
      </trkpt>
      <trkpt lat="46.82963" lon="6.53276">
        <ele>1253</ele>
        <time>2017-04-30T07:52:33.000Z</time>
      </trkpt>
      <trkpt lat="46.82959" lon="6.53266">
        <ele>1251.5999755859</ele>
        <time>2017-04-30T07:52:34.000Z</time>
      </trkpt>
      <trkpt lat="46.82955" lon="6.53244">
        <ele>1249.5999755859</ele>
        <time>2017-04-30T07:52:36.000Z</time>
      </trkpt>
      <trkpt lat="46.82953" lon="6.53235">
        <ele>1248.5999755859</ele>
        <time>2017-04-30T07:52:37.000Z</time>
      </trkpt>
      <trkpt lat="46.82947" lon="6.53223">
        <ele>1246.5999755859</ele>
        <time>2017-04-30T07:52:39.000Z</time>
      </trkpt>
      <trkpt lat="46.82943" lon="6.53218">
        <ele>1245.1999511719</ele>
        <time>2017-04-30T07:52:40.000Z</time>
      </trkpt>
      <trkpt lat="46.82939" lon="6.53216">
        <ele>1244.1999511719</ele>
        <time>2017-04-30T07:52:41.000Z</time>
      </trkpt>
      <trkpt lat="46.82937" lon="6.53214">
        <ele>1243.1999511719</ele>
        <time>2017-04-30T07:52:42.000Z</time>
      </trkpt>
      <trkpt lat="46.82937" lon="6.53217">
        <ele>1242.1999511719</ele>
        <time>2017-04-30T07:52:43.000Z</time>
      </trkpt>
      <trkpt lat="46.82935" lon="6.53223">
        <ele>1241.5999755859</ele>
        <time>2017-04-30T07:52:44.000Z</time>
      </trkpt>
      <trkpt lat="46.82934" lon="6.53228">
        <ele>1241</ele>
        <time>2017-04-30T07:52:45.000Z</time>
      </trkpt>
      <trkpt lat="46.82933" lon="6.53236">
        <ele>1240.5999755859</ele>
        <time>2017-04-30T07:52:46.000Z</time>
      </trkpt>
      <trkpt lat="46.82935" lon="6.53252">
        <ele>1239.5999755859</ele>
        <time>2017-04-30T07:52:48.000Z</time>
      </trkpt>
      <trkpt lat="46.82936" lon="6.53275">
        <ele>1238</ele>
        <time>2017-04-30T07:52:50.000Z</time>
      </trkpt>
      <trkpt lat="46.82937" lon="6.53286">
        <ele>1237.1999511719</ele>
        <time>2017-04-30T07:52:51.000Z</time>
      </trkpt>
      <trkpt lat="46.82938" lon="6.53298">
        <ele>1236.4000244141</ele>
        <time>2017-04-30T07:52:52.000Z</time>
      </trkpt>
      <trkpt lat="46.82943" lon="6.53321">
        <ele>1234.4000244141</ele>
        <time>2017-04-30T07:52:54.000Z</time>
      </trkpt>
      <trkpt lat="46.82948" lon="6.53333">
        <ele>1233.4000244141</ele>
        <time>2017-04-30T07:52:56.000Z</time>
      </trkpt>
      <trkpt lat="46.82954" lon="6.53342">
        <ele>1233.5999755859</ele>
        <time>2017-04-30T07:53:00.000Z</time>
      </trkpt>
      <trkpt lat="46.82955" lon="6.53348">
        <ele>1234.5999755859</ele>
        <time>2017-04-30T07:53:02.000Z</time>
      </trkpt>
      <trkpt lat="46.82957" lon="6.53353">
        <ele>1235.4000244141</ele>
        <time>2017-04-30T07:53:04.000Z</time>
      </trkpt>
      <trkpt lat="46.82959" lon="6.53356">
        <ele>1236</ele>
        <time>2017-04-30T07:53:05.000Z</time>
      </trkpt>
      <trkpt lat="46.82964" lon="6.53363">
        <ele>1236.8000488281</ele>
        <time>2017-04-30T07:53:08.000Z</time>
      </trkpt>
      <trkpt lat="46.82967" lon="6.53367">
        <ele>1237.1999511719</ele>
        <time>2017-04-30T07:53:10.000Z</time>
      </trkpt>
      <trkpt lat="46.82971" lon="6.53373">
        <ele>1238</ele>
        <time>2017-04-30T07:53:13.000Z</time>
      </trkpt>
      <trkpt lat="46.82972" lon="6.53375">
        <ele>1238.4000244141</ele>
        <time>2017-04-30T07:53:14.000Z</time>
      </trkpt>
      <trkpt lat="46.82975" lon="6.53379">
        <ele>1239.5999755859</ele>
        <time>2017-04-30T07:53:17.000Z</time>
      </trkpt>
      <trkpt lat="46.82976" lon="6.5338">
        <ele>1240.1999511719</ele>
        <time>2017-04-30T07:53:18.000Z</time>
      </trkpt>
      <trkpt lat="46.82977" lon="6.53383">
        <ele>1240.5999755859</ele>
        <time>2017-04-30T07:53:19.000Z</time>
      </trkpt>
      <trkpt lat="46.8298" lon="6.53389">
        <ele>1241.4000244141</ele>
        <time>2017-04-30T07:53:21.000Z</time>
      </trkpt>
      <trkpt lat="46.8298" lon="6.53392">
        <ele>1241.8000488281</ele>
        <time>2017-04-30T07:53:22.000Z</time>
      </trkpt>
      <trkpt lat="46.82983" lon="6.53398">
        <ele>1243.1999511719</ele>
        <time>2017-04-30T07:53:25.000Z</time>
      </trkpt>
      <trkpt lat="46.82989" lon="6.53407">
        <ele>1244.4000244141</ele>
        <time>2017-04-30T07:53:29.000Z</time>
      </trkpt>
      <trkpt lat="46.8299" lon="6.5341">
        <ele>1244.5999755859</ele>
        <time>2017-04-30T07:53:30.000Z</time>
      </trkpt>
      <trkpt lat="46.82993" lon="6.53418">
        <ele>1245.4000244141</ele>
        <time>2017-04-30T07:53:32.000Z</time>
      </trkpt>
      <trkpt lat="46.82995" lon="6.53423">
        <ele>1246</ele>
        <time>2017-04-30T07:53:34.000Z</time>
      </trkpt>
      <trkpt lat="46.82996" lon="6.53425">
        <ele>1246.1999511719</ele>
        <time>2017-04-30T07:53:35.000Z</time>
      </trkpt>
      <trkpt lat="46.82997" lon="6.53428">
        <ele>1246.4000244141</ele>
        <time>2017-04-30T07:53:36.000Z</time>
      </trkpt>
      <trkpt lat="46.82997" lon="6.53432">
        <ele>1247</ele>
        <time>2017-04-30T07:53:38.000Z</time>
      </trkpt>
      <trkpt lat="46.82997" lon="6.53438">
        <ele>1247</ele>
        <time>2017-04-30T07:53:40.000Z</time>
      </trkpt>
      <trkpt lat="46.82995" lon="6.53458">
        <ele>1245</ele>
        <time>2017-04-30T07:53:45.000Z</time>
      </trkpt>
      <trkpt lat="46.82995" lon="6.53468">
        <ele>1243.8000488281</ele>
        <time>2017-04-30T07:53:47.000Z</time>
      </trkpt>
      <trkpt lat="46.82996" lon="6.53481">
        <ele>1242.1999511719</ele>
        <time>2017-04-30T07:53:49.000Z</time>
      </trkpt>
      <trkpt lat="46.82998" lon="6.53494">
        <ele>1240.5999755859</ele>
        <time>2017-04-30T07:53:51.000Z</time>
      </trkpt>
      <trkpt lat="46.83001" lon="6.53509">
        <ele>1238.8000488281</ele>
        <time>2017-04-30T07:53:53.000Z</time>
      </trkpt>
      <trkpt lat="46.83003" lon="6.53524">
        <ele>1237.4000244141</ele>
        <time>2017-04-30T07:53:55.000Z</time>
      </trkpt>
      <trkpt lat="46.83006" lon="6.53542">
        <ele>1235.8000488281</ele>
        <time>2017-04-30T07:53:57.000Z</time>
      </trkpt>
      <trkpt lat="46.83009" lon="6.53555">
        <ele>1234.4000244141</ele>
        <time>2017-04-30T07:53:59.000Z</time>
      </trkpt>
      <trkpt lat="46.83014" lon="6.53562">
        <ele>1234</ele>
        <time>2017-04-30T07:54:01.000Z</time>
      </trkpt>
      <trkpt lat="46.83017" lon="6.53569">
        <ele>1234.1999511719</ele>
        <time>2017-04-30T07:54:03.000Z</time>
      </trkpt>
      <trkpt lat="46.83018" lon="6.53574">
        <ele>1234.5999755859</ele>
        <time>2017-04-30T07:54:05.000Z</time>
      </trkpt>
      <trkpt lat="46.8302" lon="6.53577">
        <ele>1235</ele>
        <time>2017-04-30T07:54:06.000Z</time>
      </trkpt>
      <trkpt lat="46.83021" lon="6.53579">
        <ele>1235.4000244141</ele>
        <time>2017-04-30T07:54:07.000Z</time>
      </trkpt>
      <trkpt lat="46.83024" lon="6.53588">
        <ele>1236.1999511719</ele>
        <time>2017-04-30T07:54:09.000Z</time>
      </trkpt>
      <trkpt lat="46.83025" lon="6.53591">
        <ele>1236.8000488281</ele>
        <time>2017-04-30T07:54:10.000Z</time>
      </trkpt>
      <trkpt lat="46.83028" lon="6.53598">
        <ele>1237.1999511719</ele>
        <time>2017-04-30T07:54:12.000Z</time>
      </trkpt>
      <trkpt lat="46.83033" lon="6.5361">
        <ele>1238</ele>
        <time>2017-04-30T07:54:15.000Z</time>
      </trkpt>
      <trkpt lat="46.83041" lon="6.53632">
        <ele>1238.1999511719</ele>
        <time>2017-04-30T07:54:20.000Z</time>
      </trkpt>
      <trkpt lat="46.83048" lon="6.53654">
        <ele>1237.1999511719</ele>
        <time>2017-04-30T07:54:25.000Z</time>
      </trkpt>
      <trkpt lat="46.8305" lon="6.53663">
        <ele>1237</ele>
        <time>2017-04-30T07:54:26.000Z</time>
      </trkpt>
      <trkpt lat="46.83051" lon="6.53667">
        <ele>1236.5999755859</ele>
        <time>2017-04-30T07:54:27.000Z</time>
      </trkpt>
      <trkpt lat="46.83052" lon="6.53681">
        <ele>1235.4000244141</ele>
        <time>2017-04-30T07:54:29.000Z</time>
      </trkpt>
      <trkpt lat="46.8305" lon="6.53687">
        <ele>1234.5999755859</ele>
        <time>2017-04-30T07:54:30.000Z</time>
      </trkpt>
      <trkpt lat="46.8305" lon="6.53692">
        <ele>1234</ele>
        <time>2017-04-30T07:54:31.000Z</time>
      </trkpt>
      <trkpt lat="46.83044" lon="6.53698">
        <ele>1232.5999755859</ele>
        <time>2017-04-30T07:54:33.000Z</time>
      </trkpt>
      <trkpt lat="46.83044" lon="6.53705">
        <ele>1231.5999755859</ele>
        <time>2017-04-30T07:54:34.000Z</time>
      </trkpt>
      <trkpt lat="46.83046" lon="6.53722">
        <ele>1230</ele>
        <time>2017-04-30T07:54:36.000Z</time>
      </trkpt>
      <trkpt lat="46.83047" lon="6.53729">
        <ele>1229.4000244141</ele>
        <time>2017-04-30T07:54:37.000Z</time>
      </trkpt>
      <trkpt lat="46.8305" lon="6.53738">
        <ele>1228.5999755859</ele>
        <time>2017-04-30T07:54:39.000Z</time>
      </trkpt>
      <trkpt lat="46.83051" lon="6.53744">
        <ele>1228.5999755859</ele>
        <time>2017-04-30T07:54:40.000Z</time>
      </trkpt>
      <trkpt lat="46.83054" lon="6.5376">
        <ele>1229</ele>
        <time>2017-04-30T07:54:44.000Z</time>
      </trkpt>
      <trkpt lat="46.83058" lon="6.5378">
        <ele>1229.4000244141</ele>
        <time>2017-04-30T07:54:49.000Z</time>
      </trkpt>
      <trkpt lat="46.8306" lon="6.53811">
        <ele>1228.4000244141</ele>
        <time>2017-04-30T07:54:54.000Z</time>
      </trkpt>
      <trkpt lat="46.83068" lon="6.53836">
        <ele>1228.1999511719</ele>
        <time>2017-04-30T07:54:59.000Z</time>
      </trkpt>
      <trkpt lat="46.83073" lon="6.53846">
        <ele>1229.1999511719</ele>
        <time>2017-04-30T07:55:03.000Z</time>
      </trkpt>
      <trkpt lat="46.83074" lon="6.53849">
        <ele>1229.8000488281</ele>
        <time>2017-04-30T07:55:04.000Z</time>
      </trkpt>
      <trkpt lat="46.83076" lon="6.53852">
        <ele>1230.4000244141</ele>
        <time>2017-04-30T07:55:05.000Z</time>
      </trkpt>
      <trkpt lat="46.83079" lon="6.53854">
        <ele>1230.8000488281</ele>
        <time>2017-04-30T07:55:06.000Z</time>
      </trkpt>
      <trkpt lat="46.83081" lon="6.53856">
        <ele>1231</ele>
        <time>2017-04-30T07:55:07.000Z</time>
      </trkpt>
      <trkpt lat="46.83084" lon="6.53858">
        <ele>1232</ele>
        <time>2017-04-30T07:55:09.000Z</time>
      </trkpt>
      <trkpt lat="46.83089" lon="6.53862">
        <ele>1233.1999511719</ele>
        <time>2017-04-30T07:55:12.000Z</time>
      </trkpt>
      <trkpt lat="46.8309" lon="6.53863">
        <ele>1233.5999755859</ele>
        <time>2017-04-30T07:55:13.000Z</time>
      </trkpt>
      <trkpt lat="46.83093" lon="6.53865">
        <ele>1234.5999755859</ele>
        <time>2017-04-30T07:55:15.000Z</time>
      </trkpt>
      <trkpt lat="46.83094" lon="6.53866">
        <ele>1235</ele>
        <time>2017-04-30T07:55:16.000Z</time>
      </trkpt>
      <trkpt lat="46.83098" lon="6.5387">
        <ele>1236.1999511719</ele>
        <time>2017-04-30T07:55:19.000Z</time>
      </trkpt>
      <trkpt lat="46.83099" lon="6.5387">
        <ele>1236.5999755859</ele>
        <time>2017-04-30T07:55:20.000Z</time>
      </trkpt>
      <trkpt lat="46.83101" lon="6.53873">
        <ele>1237.1999511719</ele>
        <time>2017-04-30T07:55:22.000Z</time>
      </trkpt>
      <trkpt lat="46.83102" lon="6.53878">
        <ele>1237.4000244141</ele>
        <time>2017-04-30T07:55:24.000Z</time>
      </trkpt>
      <trkpt lat="46.83106" lon="6.53887">
        <ele>1237.5999755859</ele>
        <time>2017-04-30T07:55:28.000Z</time>
      </trkpt>
      <trkpt lat="46.83108" lon="6.53888">
        <ele>1237.8000488281</ele>
        <time>2017-04-30T07:55:29.000Z</time>
      </trkpt>
      <trkpt lat="46.83114" lon="6.53895">
        <ele>1237.8000488281</ele>
        <time>2017-04-30T07:55:32.000Z</time>
      </trkpt>
      <trkpt lat="46.83117" lon="6.53897">
        <ele>1237.5999755859</ele>
        <time>2017-04-30T07:55:33.000Z</time>
      </trkpt>
      <trkpt lat="46.83123" lon="6.53903">
        <ele>1237.4000244141</ele>
        <time>2017-04-30T07:55:35.000Z</time>
      </trkpt>
      <trkpt lat="46.83124" lon="6.53914">
        <ele>1237.1999511719</ele>
        <time>2017-04-30T07:55:37.000Z</time>
      </trkpt>
      <trkpt lat="46.8312" lon="6.5393">
        <ele>1236.8000488281</ele>
        <time>2017-04-30T07:55:40.000Z</time>
      </trkpt>
      <trkpt lat="46.83115" lon="6.53932">
        <ele>1235.5999755859</ele>
        <time>2017-04-30T07:55:43.000Z</time>
      </trkpt>
      <trkpt lat="46.83114" lon="6.53933">
        <ele>1235.4000244141</ele>
        <time>2017-04-30T07:55:44.000Z</time>
      </trkpt>
      <trkpt lat="46.83111" lon="6.53939">
        <ele>1234.4000244141</ele>
        <time>2017-04-30T07:55:47.000Z</time>
      </trkpt>
      <trkpt lat="46.83112" lon="6.53942">
        <ele>1234</ele>
        <time>2017-04-30T07:55:48.000Z</time>
      </trkpt>
      <trkpt lat="46.83113" lon="6.53947">
        <ele>1233</ele>
        <time>2017-04-30T07:55:50.000Z</time>
      </trkpt>
      <trkpt lat="46.83112" lon="6.5395">
        <ele>1232.1999511719</ele>
        <time>2017-04-30T07:55:52.000Z</time>
      </trkpt>
      <trkpt lat="46.83109" lon="6.53949">
        <ele>1231.8000488281</ele>
        <time>2017-04-30T07:55:54.000Z</time>
      </trkpt>
      <trkpt lat="46.83107" lon="6.53948">
        <ele>1231.5999755859</ele>
        <time>2017-04-30T07:55:55.000Z</time>
      </trkpt>
      <trkpt lat="46.831" lon="6.53943">
        <ele>1230.5999755859</ele>
        <time>2017-04-30T07:56:01.000Z</time>
      </trkpt>
      <trkpt lat="46.831" lon="6.53946">
        <ele>1230</ele>
        <time>2017-04-30T07:56:02.000Z</time>
      </trkpt>
      <trkpt lat="46.83101" lon="6.53961">
        <ele>1228.4000244141</ele>
        <time>2017-04-30T07:56:05.000Z</time>
      </trkpt>
      <trkpt lat="46.83101" lon="6.53967">
        <ele>1226.8000488281</ele>
        <time>2017-04-30T07:56:07.000Z</time>
      </trkpt>
      <trkpt lat="46.831" lon="6.5397">
        <ele>1226.4000244141</ele>
        <time>2017-04-30T07:56:08.000Z</time>
      </trkpt>
      <trkpt lat="46.83099" lon="6.53973">
        <ele>1225.8000488281</ele>
        <time>2017-04-30T07:56:09.000Z</time>
      </trkpt>
      <trkpt lat="46.83099" lon="6.53974">
        <ele>1225.5999755859</ele>
        <time>2017-04-30T07:56:10.000Z</time>
      </trkpt>
      <trkpt lat="46.83095" lon="6.53972">
        <ele>1224.5999755859</ele>
        <time>2017-04-30T07:56:13.000Z</time>
      </trkpt>
      <trkpt lat="46.83091" lon="6.53971">
        <ele>1224.1999511719</ele>
        <time>2017-04-30T07:56:16.000Z</time>
      </trkpt>
      <trkpt lat="46.8309" lon="6.53972">
        <ele>1224.1999511719</ele>
        <time>2017-04-30T07:56:17.000Z</time>
      </trkpt>
      <trkpt lat="46.83088" lon="6.53976">
        <ele>1222.5999755859</ele>
        <time>2017-04-30T07:56:20.000Z</time>
      </trkpt>
      <trkpt lat="46.83086" lon="6.53977">
        <ele>1221.4000244141</ele>
        <time>2017-04-30T07:56:22.000Z</time>
      </trkpt>
      <trkpt lat="46.83084" lon="6.53979">
        <ele>1220.4000244141</ele>
        <time>2017-04-30T07:56:24.000Z</time>
      </trkpt>
      <trkpt lat="46.83085" lon="6.53982">
        <ele>1219.5999755859</ele>
        <time>2017-04-30T07:56:25.000Z</time>
      </trkpt>
      <trkpt lat="46.83086" lon="6.53985">
        <ele>1219</ele>
        <time>2017-04-30T07:56:26.000Z</time>
      </trkpt>
      <trkpt lat="46.83085" lon="6.53991">
        <ele>1218.8000488281</ele>
        <time>2017-04-30T07:56:27.000Z</time>
      </trkpt>
      <trkpt lat="46.83085" lon="6.53997">
        <ele>1218.4000244141</ele>
        <time>2017-04-30T07:56:28.000Z</time>
      </trkpt>
      <trkpt lat="46.83085" lon="6.54005">
        <ele>1218</ele>
        <time>2017-04-30T07:56:29.000Z</time>
      </trkpt>
      <trkpt lat="46.83086" lon="6.54014">
        <ele>1217.4000244141</ele>
        <time>2017-04-30T07:56:30.000Z</time>
      </trkpt>
      <trkpt lat="46.83087" lon="6.54029">
        <ele>1215</ele>
        <time>2017-04-30T07:56:32.000Z</time>
      </trkpt>
      <trkpt lat="46.83089" lon="6.54034">
        <ele>1214.1999511719</ele>
        <time>2017-04-30T07:56:33.000Z</time>
      </trkpt>
      <trkpt lat="46.83091" lon="6.54037">
        <ele>1213.8000488281</ele>
        <time>2017-04-30T07:56:34.000Z</time>
      </trkpt>
      <trkpt lat="46.8309" lon="6.5405">
        <ele>1213.1999511719</ele>
        <time>2017-04-30T07:56:37.000Z</time>
      </trkpt>
      <trkpt lat="46.83083" lon="6.54061">
        <ele>1213</ele>
        <time>2017-04-30T07:56:39.000Z</time>
      </trkpt>
      <trkpt lat="46.83072" lon="6.54068">
        <ele>1212.1999511719</ele>
        <time>2017-04-30T07:56:41.000Z</time>
      </trkpt>
      <trkpt lat="46.83067" lon="6.54073">
        <ele>1211.1999511719</ele>
        <time>2017-04-30T07:56:42.000Z</time>
      </trkpt>
      <trkpt lat="46.83065" lon="6.5408">
        <ele>1210.4000244141</ele>
        <time>2017-04-30T07:56:43.000Z</time>
      </trkpt>
      <trkpt lat="46.83062" lon="6.54088">
        <ele>1209.1999511719</ele>
        <time>2017-04-30T07:56:44.000Z</time>
      </trkpt>
      <trkpt lat="46.83058" lon="6.54095">
        <ele>1208</ele>
        <time>2017-04-30T07:56:45.000Z</time>
      </trkpt>
      <trkpt lat="46.83052" lon="6.54099">
        <ele>1206.8000488281</ele>
        <time>2017-04-30T07:56:46.000Z</time>
      </trkpt>
      <trkpt lat="46.83046" lon="6.54102">
        <ele>1205.5999755859</ele>
        <time>2017-04-30T07:56:47.000Z</time>
      </trkpt>
      <trkpt lat="46.8304" lon="6.54102">
        <ele>1204.8000488281</ele>
        <time>2017-04-30T07:56:48.000Z</time>
      </trkpt>
      <trkpt lat="46.83034" lon="6.54101">
        <ele>1204.1999511719</ele>
        <time>2017-04-30T07:56:49.000Z</time>
      </trkpt>
      <trkpt lat="46.8302" lon="6.54094">
        <ele>1203</ele>
        <time>2017-04-30T07:56:51.000Z</time>
      </trkpt>
      <trkpt lat="46.83014" lon="6.54089">
        <ele>1201.8000488281</ele>
        <time>2017-04-30T07:56:52.000Z</time>
      </trkpt>
      <trkpt lat="46.83005" lon="6.54074">
        <ele>1200.1999511719</ele>
        <time>2017-04-30T07:56:54.000Z</time>
      </trkpt>
      <trkpt lat="46.82998" lon="6.54058">
        <ele>1199</ele>
        <time>2017-04-30T07:56:56.000Z</time>
      </trkpt>
      <trkpt lat="46.82988" lon="6.54036">
        <ele>1197.5999755859</ele>
        <time>2017-04-30T07:56:59.000Z</time>
      </trkpt>
      <trkpt lat="46.82985" lon="6.5403">
        <ele>1197.4000244141</ele>
        <time>2017-04-30T07:57:00.000Z</time>
      </trkpt>
      <trkpt lat="46.82978" lon="6.54014">
        <ele>1197.1999511719</ele>
        <time>2017-04-30T07:57:03.000Z</time>
      </trkpt>
      <trkpt lat="46.82978" lon="6.54001">
        <ele>1197.4000244141</ele>
        <time>2017-04-30T07:57:06.000Z</time>
      </trkpt>
      <trkpt lat="46.8298" lon="6.53997">
        <ele>1197.4000244141</ele>
        <time>2017-04-30T07:57:07.000Z</time>
      </trkpt>
      <trkpt lat="46.8299" lon="6.53979">
        <ele>1198.4000244141</ele>
        <time>2017-04-30T07:57:12.000Z</time>
      </trkpt>
      <trkpt lat="46.82994" lon="6.53972">
        <ele>1199.5999755859</ele>
        <time>2017-04-30T07:57:14.000Z</time>
      </trkpt>
      <trkpt lat="46.82997" lon="6.53961">
        <ele>1201</ele>
        <time>2017-04-30T07:57:17.000Z</time>
      </trkpt>
      <trkpt lat="46.82997" lon="6.53954">
        <ele>1201.5999755859</ele>
        <time>2017-04-30T07:57:19.000Z</time>
      </trkpt>
      <trkpt lat="46.82995" lon="6.53947">
        <ele>1202</ele>
        <time>2017-04-30T07:57:21.000Z</time>
      </trkpt>
      <trkpt lat="46.82994" lon="6.53943">
        <ele>1202.4000244141</ele>
        <time>2017-04-30T07:57:22.000Z</time>
      </trkpt>
      <trkpt lat="46.82993" lon="6.53939">
        <ele>1202.8000488281</ele>
        <time>2017-04-30T07:57:23.000Z</time>
      </trkpt>
      <trkpt lat="46.82991" lon="6.5393">
        <ele>1203.1999511719</ele>
        <time>2017-04-30T07:57:25.000Z</time>
      </trkpt>
      <trkpt lat="46.8299" lon="6.53916">
        <ele>1203.5999755859</ele>
        <time>2017-04-30T07:57:29.000Z</time>
      </trkpt>
      <trkpt lat="46.8299" lon="6.53912">
        <ele>1204</ele>
        <time>2017-04-30T07:57:30.000Z</time>
      </trkpt>
      <trkpt lat="46.82989" lon="6.53901">
        <ele>1205.1999511719</ele>
        <time>2017-04-30T07:57:33.000Z</time>
      </trkpt>
      <trkpt lat="46.82986" lon="6.53895">
        <ele>1205.4000244141</ele>
        <time>2017-04-30T07:57:35.000Z</time>
      </trkpt>
      <trkpt lat="46.82976" lon="6.53876">
        <ele>1205.4000244141</ele>
        <time>2017-04-30T07:57:40.000Z</time>
      </trkpt>
      <trkpt lat="46.82972" lon="6.53873">
        <ele>1205.1999511719</ele>
        <time>2017-04-30T07:57:41.000Z</time>
      </trkpt>
      <trkpt lat="46.82962" lon="6.53866">
        <ele>1204.4000244141</ele>
        <time>2017-04-30T07:57:43.000Z</time>
      </trkpt>
      <trkpt lat="46.82955" lon="6.53861">
        <ele>1203.5999755859</ele>
        <time>2017-04-30T07:57:44.000Z</time>
      </trkpt>
      <trkpt lat="46.8295" lon="6.53855">
        <ele>1202.5999755859</ele>
        <time>2017-04-30T07:57:45.000Z</time>
      </trkpt>
      <trkpt lat="46.82945" lon="6.53849">
        <ele>1201.1999511719</ele>
        <time>2017-04-30T07:57:46.000Z</time>
      </trkpt>
      <trkpt lat="46.82939" lon="6.53831">
        <ele>1200.1999511719</ele>
        <time>2017-04-30T07:57:49.000Z</time>
      </trkpt>
      <trkpt lat="46.82937" lon="6.53816">
        <ele>1200</ele>
        <time>2017-04-30T07:57:52.000Z</time>
      </trkpt>
      <trkpt lat="46.82935" lon="6.53808">
        <ele>1199.8000488281</ele>
        <time>2017-04-30T07:57:54.000Z</time>
      </trkpt>
      <trkpt lat="46.82929" lon="6.53793">
        <ele>1200</ele>
        <time>2017-04-30T07:57:57.000Z</time>
      </trkpt>
      <trkpt lat="46.82925" lon="6.53782">
        <ele>1200</ele>
        <time>2017-04-30T07:57:59.000Z</time>
      </trkpt>
      <trkpt lat="46.82919" lon="6.53772">
        <ele>1199.4000244141</ele>
        <time>2017-04-30T07:58:01.000Z</time>
      </trkpt>
      <trkpt lat="46.82917" lon="6.53767">
        <ele>1198.5999755859</ele>
        <time>2017-04-30T07:58:02.000Z</time>
      </trkpt>
      <trkpt lat="46.82914" lon="6.53765">
        <ele>1198.1999511719</ele>
        <time>2017-04-30T07:58:03.000Z</time>
      </trkpt>
      <trkpt lat="46.8291" lon="6.53767">
        <ele>1197.4000244141</ele>
        <time>2017-04-30T07:58:05.000Z</time>
      </trkpt>
      <trkpt lat="46.8291" lon="6.5377">
        <ele>1197</ele>
        <time>2017-04-30T07:58:06.000Z</time>
      </trkpt>
      <trkpt lat="46.82913" lon="6.53783">
        <ele>1196.4000244141</ele>
        <time>2017-04-30T07:58:10.000Z</time>
      </trkpt>
      <trkpt lat="46.82915" lon="6.53793">
        <ele>1196.5999755859</ele>
        <time>2017-04-30T07:58:12.000Z</time>
      </trkpt>
      <trkpt lat="46.82919" lon="6.53805">
        <ele>1196.8000488281</ele>
        <time>2017-04-30T07:58:15.000Z</time>
      </trkpt>
      <trkpt lat="46.82921" lon="6.53827">
        <ele>1196.4000244141</ele>
        <time>2017-04-30T07:58:20.000Z</time>
      </trkpt>
      <trkpt lat="46.82922" lon="6.53843">
        <ele>1196.4000244141</ele>
        <time>2017-04-30T07:58:23.000Z</time>
      </trkpt>
      <trkpt lat="46.82924" lon="6.53852">
        <ele>1196.1999511719</ele>
        <time>2017-04-30T07:58:25.000Z</time>
      </trkpt>
      <trkpt lat="46.82927" lon="6.53863">
        <ele>1196.1999511719</ele>
        <time>2017-04-30T07:58:27.000Z</time>
      </trkpt>
      <trkpt lat="46.8293" lon="6.53871">
        <ele>1196</ele>
        <time>2017-04-30T07:58:29.000Z</time>
      </trkpt>
      <trkpt lat="46.82931" lon="6.53875">
        <ele>1196</ele>
        <time>2017-04-30T07:58:30.000Z</time>
      </trkpt>
      <trkpt lat="46.82932" lon="6.53883">
        <ele>1196.1999511719</ele>
        <time>2017-04-30T07:58:34.000Z</time>
      </trkpt>
      <trkpt lat="46.82933" lon="6.53886">
        <ele>1196</ele>
        <time>2017-04-30T07:58:38.000Z</time>
      </trkpt>
    </trkseg>
  </trk>
</gpx>